| Place | Name | Time | Raw score | Score |
|---|---|---|---|---|
| 1 | Homulilly (Witch) | 2:04.50 | 1,000 | 422 |
| 2 | Ferreus | 2:04.83 | 900 | 379 |
| 3 | Oraz_17 | 2:05.38 | 859 | 362 |
| 4 | fentanyl lover <3 | 2:10.32 | 827 | 349 |
| 5 | Dreigo | 2:21.35 | 800 | 337 |
| 6 | IllKIllU | 2:21.74 | 777 | 328 |
| 7 | XiQu3sT | 2:22.95 | 756 | 319 |
| 8 | Seinah | 2:26.43 | 736 | 310 |
| 9 | Bridge | 2:35.65 | 718 | 303 |
| 10 | slug ʕ●.●ʔ | 2:37.60 | 700 | 295 |
| 11 | Puma D. Ace | 2:38.58 | 684 | 288 |
| 12 | OMANEYE | 2:40.46 | 669 | 282 |
| 13 | Haunted Pleb | 2:45.87 | 654 | 276 |
| 14 | pigpenguin | 2:54.75 | 640 | 270 |
| 15 | Nico | 2:58.76 | 626 | 264 |
| 16 | Zany | 2:59.90 | 613 | 258 |
| 17 | Freud | 3:05.60 | 600 | 253 |
| 18 | KnightBane | 3:06.74 | 588 | 248 |
| 19 | Tribow | 3:06.77 | 576 | 243 |
| 20 | Terrapin | 3:10.72 | 565 | 238 |
| 21 | Draygone | 3:11.28 | 553 | 233 |
| 22 | FluffyTheZombii | 3:11.63 | 542 | 228 |
| 23 | Waonder | 3:14.00 | 531 | 224 |
| 24 | Thermos | 3:16.04 | 521 | 220 |
| 25 | cerberus❤ | 3:19.62 | 511 | 215 |
| 26 | Kinix | 3:19.80 | 500 | 211 |
| 27 | MERC | 3:22.46 | 491 | 207 |
| 28 | < blank > | 3:22.78 | 481 | 203 |
| 29 | horse46 | 3:23.48 | 471 | 199 |
| 30 | Maxter Max | 3:25.65 | 462 | 195 |
| 31 | PathToV1ctory | 3:26.53 | 453 | 191 |
| 32 | Woren | 3:27.02 | 444 | 187 |
| 33 | Sidewinder Fang | 3:28.45 | 435 | 183 |
| 34 | Seekr | 3:28.96 | 426 | 180 |
| 35 | i0nTempest | 3:32.82 | 417 | 176 |
| 36 | Overlord | 3:33.61 | 409 | 172 |
| 37 | notguts | 3:33.68 | 400 | 169 |
| 38 | Pine | 3:34.27 | 392 | 165 |
| 39 | jason | 3:36.85 | 384 | 162 |
| 40 | Nerf | 3:38.44 | 376 | 158 |
| 41 | [deleted] | 3:38.88 | 368 | 155 |
| 42 | Roboraser | 3:40.05 | 360 | 152 |
| 43 | levinv270 | 3:40.72 | 352 | 148 |
| 44 | Pinapl | 3:40.96 | 345 | 145 |
| 45 | distanceserver | 3:41.22 | 337 | 142 |
| 46 | Paparazzi | 3:41.29 | 330 | 139 |
| 47 | GTNeon | 3:41.54 | 322 | 136 |
| 48 | Spaceburger | 3:41.80 | 315 | 133 |
| 49 | Californ1a | 3:42.02 | 308 | 130 |
| 50 | krizithy | 3:42.35 | 300 | 126 |
| 51 | PinesOfChaos | 3:42.75 | 293 | 124 |
| 52 | DasGerippe | 3:42.81 | 286 | 121 |
| 53 | Sayrix | 3:42.88 | 279 | 118 |
| 54 | Dimitri | 3:42.91 | 272 | 115 |
| 55 | Jacsn | 3:42.95 | 266 | 112 |
| 56 | IIRMPII | 3:43.01 | 259 | 109 |
| 57 | Wolf Black | 3:43.07 | 252 | 106 |
| 58 | Latapi | 3:44.04 | 246 | 104 |
| 59 | DefenderOfHyrule | 3:44.11 | 239 | 101 |
| 60 | Twinbee | 3:44.92 | 232 | 98 |
| 61 | Kuzidas | 3:44.93 | 226 | 95 |
| 62 | concil | 3:45.22 | 219 | 92 |
| 63 | Kenaz | 3:45.94 | 213 | 90 |
| 64 | Void Concept | 3:46.87 | 207 | 87 |
| 65 | CodedCrow | 3:47.02 | 200 | 84 |
| 65 | Blu3 | 3:47.02 | 200 | 84 |
| 67 | e⁻ | 3:47.15 | 188 | 79 |
| 68 | khrisround2 | 3:47.18 | 182 | 77 |
| 69 | Shaka | 3:47.81 | 176 | 74 |
| 70 | ペレリン | 3:47.93 | 170 | 72 |
| 71 | SlowScan | 3:48.22 | 164 | 69 |
| 72 | Blahaj Blast | 3:48.84 | 158 | 67 |
| 72 | GaiaGaiyus | 3:48.84 | 158 | 67 |
| 74 | Ai Preto | 3:49.62 | 146 | 62 |
| 75 | Shikhuh | 3:49.63 | 140 | 59 |
| 76 | Predatory_Balloon | 3:49.81 | 134 | 56 |
| 77 | RaiderZulu | 3:50.15 | 129 | 54 |
| 78 | Plasmawario | 3:50.37 | 123 | 52 |
| 79 | milli | 3:50.61 | 117 | 49 |
| 80 | TartanKitty773 | 3:51.20 | 112 | 47 |
| 81 | Nickel | 3:51.35 | 106 | 45 |
| 82 | gusforester | 3:51.51 | 100 | 42 |
| 83 | dan7999 | 3:51.57 | 95 | 40 |
| 84 | The Blue Fox | 3:51.64 | 89 | 38 |
| 85 | Jappen | 3:51.90 | 84 | 35 |
| 86 | Turtelus_Grande | 3:52.75 | 79 | 33 |
| 87 | Laties-X-Latias | 3:53.13 | 73 | 31 |
| 88 | Iv0x | 3:53.17 | 68 | 29 |
| 89 | Minecraft-pro | 3:53.31 | 62 | 26 |
| 90 | Gray. | 3:53.44 | 57 | 24 |
| 91 | Yak-Yo! | 3:53.59 | 52 | 22 |
| 92 | Razgriez | 3:53.70 | 47 | 20 |
| 93 | Firestix | 3:53.73 | 41 | 17 |
| 94 | Ebeta2 | 3:54.13 | 36 | 15 |
| 95 | SpeedDemon64 | 3:54.17 | 31 | 13 |
| 96 | JDthe3rd | 3:54.26 | 26 | 11 |
| 97 | PuppySky | 3:54.34 | 21 | 9 |
| 98 | A very silly man indeed | 3:54.52 | 16 | 7 |
| 99 | Shady Inktail | 3:54.54 | 11 | 5 |
| 100 | blue | 3:54.55 | 6 | 3 |
| 101 | Winter's Crescendo | 3:54.58 | 0 | 0 |
| 101 | NeonChaosAwoo | 3:54.58 | 0 | 0 |
| 103 | mikayla | 3:54.92 | 0 | 0 |
| 104 | Kibōchen | 3:54.94 | 0 | 0 |
| 105 | lift your tail for me | 3:54.97 | 0 | 0 |
| 106 | SipuliHillo | 3:55.02 | 0 | 0 |
| 107 | Brother Buckshot | 3:55.03 | 0 | 0 |
| 107 | NyctoGT | 3:55.03 | 0 | 0 |
| 109 | Abuumis | 3:55.13 | 0 | 0 |
| 110 | CloudBirb | 3:55.14 | 0 | 0 |
| 111 | [deleted] | 3:55.19 | 0 | 0 |
| 112 | [deleted] | 3:55.20 | 0 | 0 |
| 113 | DieselFace | 3:55.22 | 0 | 0 |
| 114 | Distance306 | 3:55.35 | 0 | 0 |
| 115 | TheEvilMidnightBomber | 3:55.38 | 0 | 0 |
| 116 | MyurrDurr | 3:55.50 | 0 | 0 |
| 117 | kriz_chan | 3:55.57 | 0 | 0 |
| 118 | L4v4 | 3:55.67 | 0 | 0 |
| 119 | Carl | 3:55.73 | 0 | 0 |
| 120 | JayBoneJay | 3:55.75 | 0 | 0 |
| 121 | CeruleanAzura | 3:55.83 | 0 | 0 |
| 122 | sacrafish | 3:55.99 | 0 | 0 |
| 123 | Jarminx | 3:56.07 | 0 | 0 |
| 124 | Crimson Blood | 3:56.08 | 0 | 0 |
| 125 | FunChips | 3:56.10 | 0 | 0 |
| 126 | exterminator2100 | 3:56.12 | 0 | 0 |
| 126 | ZelSuthtin | 3:56.12 | 0 | 0 |
| 128 | MasterJedi2014 | 3:56.14 | 0 | 0 |
| 129 | Xandrak | 3:56.29 | 0 | 0 |
| 130 | Chipboard | 3:56.80 | 0 | 0 |
| 131 | Sunchipp Games | 3:56.98 | 0 | 0 |
| 132 | Spacefarer | 3:56.99 | 0 | 0 |
| 133 | Lore maker | 3:57.05 | 0 | 0 |
| 134 | SirDan | 3:57.22 | 0 | 0 |
| 135 | That One Panda | 3:57.23 | 0 | 0 |
| 136 | cptnbean | 3:57.29 | 0 | 0 |
| 137 | Birb | 3:57.32 | 0 | 0 |
| 138 | Ennik | 3:57.33 | 0 | 0 |
| 139 | Bile | 3:57.34 | 0 | 0 |
| 140 | CoJo12 | 3:57.42 | 0 | 0 |
| 141 | no_one | 3:57.48 | 0 | 0 |
| 142 | pztunleaded | 3:57.62 | 0 | 0 |
| 143 | PlatinumAstra | 3:57.63 | 0 | 0 |
| 144 | kivito | 3:57.78 | 0 | 0 |
| 145 | Antidisestablishmentarianism | 3:58.17 | 0 | 0 |
| 146 | posture check | 3:58.28 | 0 | 0 |
| 147 | Mar_Veloz | 3:58.44 | 0 | 0 |
| 148 | Jason Waterfalls | 3:58.49 | 0 | 0 |
| 149 | Edragon13 | 3:58.62 | 0 | 0 |
| 150 | patben8 | 3:58.65 | 0 | 0 |
| 151 | EnderKill98 | 3:58.66 | 0 | 0 |
| 152 | Birdland | 3:58.73 | 0 | 0 |
| 153 | Žydras | 3:58.81 | 0 | 0 |
| 154 | Azure Zakura | 3:58.92 | 0 | 0 |
| 155 | Sunnydan | 3:58.93 | 0 | 0 |
| 156 | Shroom | 3:58.99 | 0 | 0 |
| 156 | VI_fizz | 3:58.99 | 0 | 0 |
| 158 | Chated | 3:59.00 | 0 | 0 |
| 159 | Voltaic | 3:59.05 | 0 | 0 |
| 160 | Ren-Ren | 3:59.06 | 0 | 0 |
| 161 | Sir Johan | 3:59.08 | 0 | 0 |
| 162 | Acias | 3:59.11 | 0 | 0 |
| 162 | Kramatus | 3:59.11 | 0 | 0 |
| 164 | Ozymandias | 3:59.14 | 0 | 0 |
| 165 | TheEPROM9 LaTeX | 3:59.19 | 0 | 0 |
| 166 | EonShark | 3:59.31 | 0 | 0 |
| 167 | Chase | 3:59.45 | 0 | 0 |
| 168 | Cyberpunk Ice Noodle | 3:59.47 | 0 | 0 |
| 169 | codename_rb | 3:59.75 | 0 | 0 |
| 170 | MAMUMUSUME | 3:59.76 | 0 | 0 |
| 171 | Ironside451 | 3:59.77 | 0 | 0 |
| 172 | Jeżyk | 3:59.79 | 0 | 0 |
| 173 | kashyyyke | 3:59.84 | 0 | 0 |
| 174 | Andreizovisky | 3:59.88 | 0 | 0 |
| 175 | LittleKittyArtemis | 3:59.90 | 0 | 0 |
| 176 | ant | 4:00.00 | 0 | 0 |
| 177 | SX64 | 4:00.09 | 0 | 0 |
| 178 | WorkingChickenMH | 4:00.31 | 0 | 0 |
| 179 | Ohnoitsmangofett | 4:00.45 | 0 | 0 |
| 180 | Siyzerix | 4:00.46 | 0 | 0 |
| 181 | Awesomedan | 4:00.65 | 0 | 0 |
| 182 | BulletRain23 | 4:00.66 | 0 | 0 |
| 183 | LP_NinLory | 4:00.67 | 0 | 0 |
| 184 | KaijuBBQ | 4:00.85 | 0 | 0 |
| 185 | KaMozo25 | 4:00.87 | 0 | 0 |
| 186 | M500 | 4:01.05 | 0 | 0 |
| 187 | KingClockwork | 4:01.29 | 0 | 0 |
| 188 | -Ω- | 4:01.39 | 0 | 0 |
| 188 | BrandonK-TN | 4:01.39 | 0 | 0 |
| 190 | LeFluffySquirrel | 4:01.43 | 0 | 0 |
| 191 | √(-1) = i | 4:01.50 | 0 | 0 |
| 192 | G9 | 4:01.52 | 0 | 0 |
| 193 | lefor0416 | 4:01.58 | 0 | 0 |
| 194 | burger | 4:01.62 | 0 | 0 |
| 195 | scheiß auf mein chungus leben | 4:01.71 | 0 | 0 |
| 196 | PineFreshGuy | 4:01.81 | 0 | 0 |
| 197 | ьlогьо glогьо | 4:01.90 | 0 | 0 |
| 198 | Bubwubster | 4:02.01 | 0 | 0 |
| 199 | trigger_segfault | 4:02.06 | 0 | 0 |
| 200 | Kosvid | 4:02.07 | 0 | 0 |
| 201 | pcl219 | 4:02.18 | 0 | 0 |
| 201 | The Ol' Razzle Dazzle | 4:02.18 | 0 | 0 |
| 203 | Big Bootiecoot | 4:02.19 | 0 | 0 |
| 204 | CheeseWithHoles | 4:02.28 | 0 | 0 |
| 205 | Alopex | 4:02.31 | 0 | 0 |
| 206 | Grungus | 4:02.38 | 0 | 0 |
| 207 | Nick Elements | 4:02.44 | 0 | 0 |
| 207 | NetroidNederitch | 4:02.44 | 0 | 0 |
| 209 | Crysest | 4:02.45 | 0 | 0 |
| 210 | PenguinMafia | 4:02.49 | 0 | 0 |
| 211 | Jam0344 | 4:02.54 | 0 | 0 |
| 212 | sour | 4:02.57 | 0 | 0 |
| 212 | onyxglow | 4:02.57 | 0 | 0 |
| 214 | Slacks | 4:02.60 | 0 | 0 |
| 215 | DROCHEPOLK | 4:02.63 | 0 | 0 |
| 216 | Sugoi-desu (⊙‿⊙✿) | 4:02.65 | 0 | 0 |
| 217 | A̶͓̓z̷͓̍ũ̴̩r̷͔͐e̴ | 4:02.67 | 0 | 0 |
| 218 | TP-N.co PC-118 B-10001110101 | 4:02.79 | 0 | 0 |
| 219 | SIGSTACKFAULT | 4:02.81 | 0 | 0 |
| 220 | Photonman | 4:02.85 | 0 | 0 |
| 221 | Moonie | 4:02.98 | 0 | 0 |
| 222 | Cancer Liquid | 4:03.00 | 0 | 0 |
| 223 | Dyltra | 4:03.01 | 0 | 0 |
| 224 | [BIT]SnepSpecialist | 4:03.07 | 0 | 0 |
| 225 | snugglebottom | 4:03.11 | 0 | 0 |
| 226 | AFRQDED | 4:03.20 | 0 | 0 |
| 227 | sevenofnone | 4:03.25 | 0 | 0 |
| 228 | BlacKat | 4:03.43 | 0 | 0 |
| 229 | wanderingradio | 4:03.54 | 0 | 0 |
| 230 | Muggestutz | 4:03.93 | 0 | 0 |
| 231 | Julius_Geezer | 4:03.99 | 0 | 0 |
| 232 | Hayaweh | 4:04.01 | 0 | 0 |
| 233 | ImmortalSausages | 4:04.02 | 0 | 0 |
| 234 | kal3cy | 4:04.16 | 0 | 0 |
| 235 | Formidable | 4:04.19 | 0 | 0 |
| 236 | Qioury | 4:04.25 | 0 | 0 |
| 237 | Skizz | 4:04.36 | 0 | 0 |
| 238 | K-NiGHT | 4:04.53 | 0 | 0 |
| 239 | CuddleStrike | 4:04.54 | 0 | 0 |
| 240 | sizifov | 4:04.60 | 0 | 0 |
| 241 | Simon Evo | 4:04.67 | 0 | 0 |
| 242 | DecentM | 4:04.68 | 0 | 0 |
| 243 | Iris | 4:04.73 | 0 | 0 |
| 244 | Songbird | 4:04.78 | 0 | 0 |
| 245 | Гвоздь | 4:04.88 | 0 | 0 |
| 246 | superchargedrc | 4:05.03 | 0 | 0 |
| 246 | BVSSPVPPY | 4:05.03 | 0 | 0 |
| 248 | Mr.Scouty [ESP] | 4:05.11 | 0 | 0 |
| 249 | Mossy Shush | 4:05.13 | 0 | 0 |
| 250 | ReallyDumbFox | 4:05.34 | 0 | 0 |
| 251 | 2Infinity&Evil | 4:05.39 | 0 | 0 |
| 252 | BulletCatcher | 4:05.41 | 0 | 0 |
| 253 | FriendlySwords | 4:05.46 | 0 | 0 |
| 254 | Therio | 4:05.52 | 0 | 0 |
| 255 | <edgyname> | 4:05.56 | 0 | 0 |
| 256 | Irradiated Irridium | 4:05.58 | 0 | 0 |
| 257 | OneCent_HD | 4:05.83 | 0 | 0 |
| 258 | E0N | 4:05.94 | 0 | 0 |
| 259 | Sixprey | 4:05.98 | 0 | 0 |
| 260 | Megamiguel3 | 4:06.00 | 0 | 0 |
| 261 | Dorphan | 4:06.02 | 0 | 0 |
| 262 | Retromancer | 4:06.05 | 0 | 0 |
| 263 | menkaru | 4:06.25 | 0 | 0 |
| 264 | Gyodesis | 4:06.29 | 0 | 0 |
| 265 | Mr. Bird | 4:06.36 | 0 | 0 |
| 265 | JeffTheBruh | 4:06.36 | 0 | 0 |
| 267 | D0HERRITT | 4:06.37 | 0 | 0 |
| 268 | [STMHPY] defragmentized | 4:06.45 | 0 | 0 |
| 269 | Warriot | 4:06.46 | 0 | 0 |
| 270 | The Unusual Suspect | 4:06.51 | 0 | 0 |
| 271 | Чаечек ☂ | 4:06.59 | 0 | 0 |
| 272 | [NBD] PizzaHutDoxen | 4:06.60 | 0 | 0 |
| 273 | Breezy™ | 4:06.61 | 0 | 0 |
| 274 | Grat | 4:06.67 | 0 | 0 |
| 274 | MarsDevastater | 4:06.67 | 0 | 0 |
| 276 | pugna's style | 4:06.82 | 0 | 0 |
| 277 | mrahc | 4:06.87 | 0 | 0 |
| 278 | Samn | 4:06.91 | 0 | 0 |
| 279 | Serrucho | 4:06.95 | 0 | 0 |
| 280 | Cyxxus | 4:07.01 | 0 | 0 |
| 281 | MJD | 4:07.02 | 0 | 0 |
| 282 | Quirked-up White Boy | 4:07.03 | 0 | 0 |
| 283 | feiluuyre | 4:07.07 | 0 | 0 |
| 283 | Domino | 4:07.07 | 0 | 0 |
| 285 | Dracheron | 4:07.09 | 0 | 0 |
| 286 | ToonFan2106 | 4:07.14 | 0 | 0 |
| 287 | Jacob Jonkler | 4:07.17 | 0 | 0 |
| 288 | Raxmus | 4:07.31 | 0 | 0 |
| 289 | VORCHAX | 4:07.32 | 0 | 0 |
| 290 | Revan5678 | 4:07.35 | 0 | 0 |
| 291 | KWP | 4:07.38 | 0 | 0 |
| 292 | Glas | 4:07.45 | 0 | 0 |
| 293 | Jarek718 | 4:07.47 | 0 | 0 |
| 294 | Dany | 4:07.55 | 0 | 0 |
| 295 | EchoTrash ♀ (Alt) | 4:07.71 | 0 | 0 |
| 296 | 321longshot | 4:07.74 | 0 | 0 |
| 297 | Funderfullness | 4:08.02 | 0 | 0 |
| 298 | The Law | 4:08.04 | 0 | 0 |
| 299 | XEqualsPenguin | 4:08.06 | 0 | 0 |
| 300 | croc | 4:08.09 | 0 | 0 |
| 301 | Lost_Incentive | 4:08.12 | 0 | 0 |
| 302 | Sind | 4:08.26 | 0 | 0 |
| 303 | a funny doggirl | 4:08.31 | 0 | 0 |
| 304 | absolutelynothing | 4:08.33 | 0 | 0 |
| 305 | lxemergency | 4:08.36 | 0 | 0 |
| 306 | Corecii | 4:08.54 | 0 | 0 |
| 307 | 4:08.56 | 0 | 0 | |
| 308 | KR13 | 4:08.61 | 0 | 0 |
| 309 | Dove Linen | 4:08.78 | 0 | 0 |
| 310 | THE FINAL LOSER | 4:08.84 | 0 | 0 |
| 311 | phfphefph | 4:08.86 | 0 | 0 |
| 312 | Pristine | 4:09.07 | 0 | 0 |
| 313 | supersmily5 | 4:09.08 | 0 | 0 |
| 314 | Irotas | 4:09.15 | 0 | 0 |
| 314 | Pylinaer | 4:09.15 | 0 | 0 |
| 316 | Ryoteer | 4:09.17 | 0 | 0 |
| 317 | Garvado | 4:09.23 | 0 | 0 |
| 318 | Iwa Lima | 4:09.24 | 0 | 0 |
| 319 | Kincaid | 4:09.27 | 0 | 0 |
| 320 | Phimeek | 4:09.37 | 0 | 0 |
| 321 | DPftw | 4:09.38 | 0 | 0 |
| 322 | Actual Subhuman Garbage | 4:09.39 | 0 | 0 |
| 323 | Curious Fish | 4:09.40 | 0 | 0 |
| 324 | SHAaD_Sicod | 4:09.41 | 0 | 0 |
| 325 | ShironVarden | 4:09.43 | 0 | 0 |
| 326 | Aiko | 4:09.50 | 0 | 0 |
| 327 | LachenJager | 4:09.51 | 0 | 0 |
| 328 | DisQorded | 4:09.59 | 0 | 0 |
| 329 | ErzoopaRTR | 4:09.66 | 0 | 0 |
| 330 | JacquetheRipper | 4:09.79 | 0 | 0 |
| 331 | Eleven27 | 4:09.80 | 0 | 0 |
| 331 | ✂👌☜✌☼✂ | 4:09.80 | 0 | 0 |
| 331 | DimitriOS | 4:09.80 | 0 | 0 |
| 334 | Rambo Nanny | 4:09.84 | 0 | 0 |
| 334 | lEm=uS | 4:09.84 | 0 | 0 |
| 336 | Weird Pumpkin | 4:09.87 | 0 | 0 |
| 337 | Joti | 4:09.92 | 0 | 0 |
| 338 | Enso | 4:10.01 | 0 | 0 |
| 339 | Delhjiko | 4:10.14 | 0 | 0 |
| 340 | Epsilon_Knight | 4:10.18 | 0 | 0 |
| 340 | Crazed Butt-Cuddler | 4:10.18 | 0 | 0 |
| 342 | Tybalt the First | 4:10.19 | 0 | 0 |
| 343 | Buck | 4:10.28 | 0 | 0 |
| 344 | Phil_ | 4:10.37 | 0 | 0 |
| 344 | zombieassaultman | 4:10.37 | 0 | 0 |
| 346 | BoreasTheIceGod | 4:10.38 | 0 | 0 |
| 347 | Hotride | 4:10.53 | 0 | 0 |
| 348 | Isosceles | 4:10.58 | 0 | 0 |
| 349 | TinFoilMkIV | 4:10.61 | 0 | 0 |
| 350 | AkioDX | 4:10.72 | 0 | 0 |
| 351 | Yeephy | 4:10.83 | 0 | 0 |
| 352 | NICE7EN | 4:10.85 | 0 | 0 |
| 353 | Raynland McNuggets | 4:10.87 | 0 | 0 |
| 354 | AniseedWolf | 4:10.88 | 0 | 0 |
| 355 | endergecko1218 | 4:10.95 | 0 | 0 |
| 356 | [NR] Miyu012 | 4:10.97 | 0 | 0 |
| 356 | Jrc126 | 4:10.97 | 0 | 0 |
| 358 | Caffeine Cat | 4:10.99 | 0 | 0 |
| 359 | Hijacker02 | 4:11.01 | 0 | 0 |
| 360 | Portal Blinx | 4:11.02 | 0 | 0 |
| 361 | Ferret | 4:11.03 | 0 | 0 |
| 362 | Jack | 4:11.07 | 0 | 0 |
| 363 | Super_Shadow57 | 4:11.09 | 0 | 0 |
| 364 | Andy95 | 4:11.17 | 0 | 0 |
| 365 | Chidaro | 4:11.21 | 0 | 0 |
| 366 | enJohneering | 4:11.27 | 0 | 0 |
| 367 | REEper the Memebringer | 4:11.33 | 0 | 0 |
| 368 | McFolt | 4:11.39 | 0 | 0 |
| 369 | Onneyon | 4:11.44 | 0 | 0 |
| 370 | sWilder9 | 4:11.56 | 0 | 0 |
| 371 | Mr SEVEN | 4:11.57 | 0 | 0 |
| 372 | Achiro | 4:11.63 | 0 | 0 |
| 372 | Hayden | 4:11.63 | 0 | 0 |
| 374 | Gidan | 4:11.64 | 0 | 0 |
| 375 | Ungarr | 4:11.70 | 0 | 0 |
| 376 | C3PO | 4:11.73 | 0 | 0 |
| 377 | SodarCZ | 4:11.76 | 0 | 0 |
| 378 | Holo | 4:11.78 | 0 | 0 |
| 379 | [deleted] | 4:11.79 | 0 | 0 |
| 380 | The K-man | 4:11.81 | 0 | 0 |
| 381 | ShadowWolf | 4:11.87 | 0 | 0 |
| 382 | ElHombre86 | 4:11.89 | 0 | 0 |
| 383 | RenTide4 | 4:11.93 | 0 | 0 |
| 384 | iHaveAwfulIdeas | 4:11.95 | 0 | 0 |
| 385 | Finch | 4:11.99 | 0 | 0 |
| 386 | Joseloran | 4:12.08 | 0 | 0 |
| 387 | Nixill | 4:12.15 | 0 | 0 |
| 387 | Chief | 4:12.15 | 0 | 0 |
| 389 | nakor[fr] | 4:12.18 | 0 | 0 |
| 390 | skuzzzy | 4:12.22 | 0 | 0 |
| 391 | fxskill | 4:12.29 | 0 | 0 |
| 392 | Nainji | 4:12.31 | 0 | 0 |
| 393 | [TSA] Siggi | 4:12.34 | 0 | 0 |
| 394 | Derdoron | 4:12.40 | 0 | 0 |
| 395 | toniqe53 | 4:12.47 | 0 | 0 |
| 396 | Negaprion | 4:12.69 | 0 | 0 |
| 397 | Spark | 4:12.70 | 0 | 0 |
| 398 | Tyfighter152 | 4:12.71 | 0 | 0 |
| 399 | HockeyHero7 | 4:12.72 | 0 | 0 |
| 399 | Deora II | 4:12.72 | 0 | 0 |
| 401 | SPEEDYSPEEDBOI | 4:12.77 | 0 | 0 |
| 402 | conkistador | 4:12.84 | 0 | 0 |
| 403 | Dante | 4:12.85 | 0 | 0 |
| 404 | A Very Angy Opossum | 4:12.88 | 0 | 0 |
| 405 | Госпожа Сигарета | 4:12.98 | 0 | 0 |
| 406 | canem | Phantasmagoria | 4:12.99 | 0 | 0 |
| 406 | Dragonsbane1270 | 4:12.99 | 0 | 0 |
| 408 | quoniam | 4:13.09 | 0 | 0 |
| 409 | aro3o6 | 4:13.17 | 0 | 0 |
| 410 | Elleira <3 | 4:13.19 | 0 | 0 |
| 411 | Monark10 | 4:13.27 | 0 | 0 |
| 411 | NotAtAllWise0 | 4:13.27 | 0 | 0 |
| 413 | Alpha_73346 | 4:13.31 | 0 | 0 |
| 414 | JaimmyShine | 4:13.37 | 0 | 0 |
| 415 | Phillipus | 4:13.39 | 0 | 0 |
| 416 | Phil | 4:13.43 | 0 | 0 |
| 417 | filipzjersina | 4:13.46 | 0 | 0 |
| 418 | Citrus | 4:13.47 | 0 | 0 |
| 419 | Razor_ZXM | 4:13.50 | 0 | 0 |
| 420 | ATOM | 4:13.56 | 0 | 0 |
| 421 | Rylond | 4:13.57 | 0 | 0 |
| 422 | Sample Text | 4:13.58 | 0 | 0 |
| 423 | Avel | 4:13.64 | 0 | 0 |
| 423 | Lin | 4:13.64 | 0 | 0 |
| 425 | Silver~ | 4:13.68 | 0 | 0 |
| 426 | BuzZoiD | 4:13.74 | 0 | 0 |
| 426 | MOCOCHINCHOL | 4:13.74 | 0 | 0 |
| 428 | Sniggles | 4:13.78 | 0 | 0 |
| 429 | NicholasKB19 | 4:13.81 | 0 | 0 |
| 430 | Ultor | 4:13.84 | 0 | 0 |
| 430 | Cheesus Crust (mono) | 4:13.84 | 0 | 0 |
| 432 | cocob4 | 4:13.89 | 0 | 0 |
| 433 | RetaliationGuy YT | 4:13.94 | 0 | 0 |
| 434 | SnackLover | 4:13.97 | 0 | 0 |
| 435 | jackblackberry3 | 4:13.99 | 0 | 0 |
| 436 | Luminous | 4:14.12 | 0 | 0 |
| 437 | Shyylock | 4:14.22 | 0 | 0 |
| 438 | Griiig | 4:14.25 | 0 | 0 |
| 438 | Greeny^ | 4:14.25 | 0 | 0 |
| 440 | The Good Gaming Dragon | 4:14.26 | 0 | 0 |
| 440 | LobaDK | 4:14.26 | 0 | 0 |
| 442 | Rod | 4:14.44 | 0 | 0 |
| 442 | MFHxTiptoe | 4:14.44 | 0 | 0 |
| 444 | Azem_of_Earth | 4:14.49 | 0 | 0 |
| 445 | Pclone501 | 4:14.57 | 0 | 0 |
| 446 | C4tch | 4:14.58 | 0 | 0 |
| 447 | Brando Multin | 4:14.61 | 0 | 0 |
| 448 | Suspect | 4:14.66 | 0 | 0 |
| 449 | Natr | 4:14.67 | 0 | 0 |
| 450 | Lliane | 4:14.68 | 0 | 0 |
| 451 | kuvni | 4:14.75 | 0 | 0 |
| 452 | Aleron | 4:14.77 | 0 | 0 |
| 453 | Gloþ | 4:14.79 | 0 | 0 |
| 454 | Ryowulf768 | 4:14.84 | 0 | 0 |
| 455 | AAAAA | 4:14.88 | 0 | 0 |
| 456 | Skippy Peanut Butter | 4:14.90 | 0 | 0 |
| 457 | Umbrasbane | 4:14.95 | 0 | 0 |
| 458 | Galaxic | 4:14.98 | 0 | 0 |
| 459 | Topaz95 | 4:14.99 | 0 | 0 |
| 460 | Loopsty | 4:15.11 | 0 | 0 |
| 461 | Kypar | 4:15.13 | 0 | 0 |
| 462 | Kaliphear | 4:15.14 | 0 | 0 |
| 462 | Fire Claw | 4:15.14 | 0 | 0 |
| 464 | toomtoomX | 4:15.20 | 0 | 0 |
| 465 | HyperNova | 4:15.26 | 0 | 0 |
| 466 | dinkleb3rg | 4:15.28 | 0 | 0 |
| 467 | Foxy 狐の夏 | 4:15.31 | 0 | 0 |
| 467 | JohnCorby | 4:15.31 | 0 | 0 |
| 469 | GLUBBA | 4:15.32 | 0 | 0 |
| 470 | SneakyBombsuit | 4:15.33 | 0 | 0 |
| 470 | Tanikaze | 4:15.33 | 0 | 0 |
| 472 | sugoiangela | 4:15.40 | 0 | 0 |
| 473 | Zodiac | 4:15.43 | 0 | 0 |
| 474 | Prodigy12 | 4:15.49 | 0 | 0 |
| 475 | Timme701 | 4:15.51 | 0 | 0 |
| 476 | A Live Studio Audience | 4:15.53 | 0 | 0 |
| 477 | StoicSirius | 4:15.57 | 0 | 0 |
| 478 | FRX | 4:15.58 | 0 | 0 |
| 479 | Anonymous | 4:15.61 | 0 | 0 |
| 480 | Alex97r | 4:15.62 | 0 | 0 |
| 481 | Ruslan145 | 4:15.68 | 0 | 0 |
| 482 | TekuGen | 4:15.69 | 0 | 0 |
| 483 | Lazarus | 4:15.71 | 0 | 0 |
| 484 | Karakanov | 4:15.73 | 0 | 0 |
| 485 | Lutermama | 4:15.74 | 0 | 0 |
| 486 | edc | 4:15.77 | 0 | 0 |
| 487 | Sgt_Snowcone | 4:15.80 | 0 | 0 |
| 488 | Ziiryu | 4:15.81 | 0 | 0 |
| 489 | Defiance_LLK | 4:15.84 | 0 | 0 |
| 489 | Saciachrid | 4:15.84 | 0 | 0 |
| 491 | Siddey10 | 4:15.89 | 0 | 0 |
| 492 | G5TNo2486 | 4:15.92 | 0 | 0 |
| 493 | Fuffmydog | 4:15.99 | 0 | 0 |
| 493 | Enzyme Machine | 4:15.99 | 0 | 0 |
| 495 | AERO | 4:16.00 | 0 | 0 |
| 495 | [ ] | 4:16.00 | 0 | 0 |
| 497 | TMTHY | 4:16.11 | 0 | 0 |
| 498 | baakstaff | 4:16.12 | 0 | 0 |
| 498 | UnFefeSauvage | 4:16.12 | 0 | 0 |
| 500 | Battle Banana Chris Handsom | 4:16.13 | 0 | 0 |
| 501 | H A L O 3 M A R I N E | 4:16.21 | 0 | 0 |
| 502 | Pompous Whale | 4:16.27 | 0 | 0 |
| 503 | Sky_ | 4:16.29 | 0 | 0 |
| 504 | Striker25 | 4:16.32 | 0 | 0 |
| 505 | Recapes | 4:16.36 | 0 | 0 |
| 506 | Professional Trash | 4:16.39 | 0 | 0 |
| 507 | EpicN The Empty | 4:16.51 | 0 | 0 |
| 508 | Aespher | 4:16.55 | 0 | 0 |
| 508 | Hunter | 4:16.55 | 0 | 0 |
| 510 | SirEldricht | 4:16.56 | 0 | 0 |
| 511 | Candy78 | 4:16.61 | 0 | 0 |
| 512 | Zenoguard | 4:16.63 | 0 | 0 |
| 513 | TENEBRlS | 4:16.64 | 0 | 0 |
| 514 | Dosilox | 4:16.66 | 0 | 0 |
| 515 | Pacific RimJob | 4:16.69 | 0 | 0 |
| 516 | Jake.cx | 4:16.79 | 0 | 0 |
| 516 | Dogtorque | 4:16.79 | 0 | 0 |
| 518 | galactic depression | 4:16.81 | 0 | 0 |
| 519 | XLgeneral | 4:16.82 | 0 | 0 |
| 520 | bbw warrior | 4:16.87 | 0 | 0 |
| 520 | Dr. Weaver | 4:16.87 | 0 | 0 |
| 522 | Gammeta | 4:16.88 | 0 | 0 |
| 523 | Merc | 4:16.89 | 0 | 0 |
| 524 | Helios | 4:16.91 | 0 | 0 |
| 525 | Bijan | 4:16.95 | 0 | 0 |
| 525 | Ultradestroyer00235 | 4:16.95 | 0 | 0 |
| 527 | Meda | 4:17.03 | 0 | 0 |
| 528 | Serothel | 4:17.04 | 0 | 0 |
| 528 | CampingCarl | 4:17.04 | 0 | 0 |
| 530 | JSomber | 4:17.09 | 0 | 0 |
| 531 | TroP1K | 4:17.14 | 0 | 0 |
| 531 | Помпа | 4:17.14 | 0 | 0 |
| 533 | Shinchi | 4:17.21 | 0 | 0 |
| 534 | one cute fox girl | 4:17.27 | 0 | 0 |
| 535 | Beets by Farmer Dre | 4:17.28 | 0 | 0 |
| 536 | Dislin | 4:17.29 | 0 | 0 |
| 537 | bloaty | 4:17.34 | 0 | 0 |
| 538 | Tenth | 4:17.35 | 0 | 0 |
| 538 | W0lverine1231 | 4:17.35 | 0 | 0 |
| 540 | AlveKatt | 4:17.36 | 0 | 0 |
| 541 | Pointed Mammal29 | 4:17.40 | 0 | 0 |
| 542 | Joan6694 | 4:17.42 | 0 | 0 |
| 543 | corvushereje | 4:17.44 | 0 | 0 |
| 544 | Mehl | 4:17.45 | 0 | 0 |
| 545 | IanRosk | 4:17.47 | 0 | 0 |
| 545 | Salvage | 4:17.47 | 0 | 0 |
| 547 | Xterra | 4:17.50 | 0 | 0 |
| 548 | Neopolitan Sky | 4:17.52 | 0 | 0 |
| 549 | ★ Star ★ | 4:17.53 | 0 | 0 |
| 549 | Buff Nuts | 4:17.53 | 0 | 0 |
| 551 | Saladus | 4:17.59 | 0 | 0 |
| 552 | HellKite Matt | 4:17.63 | 0 | 0 |
| 552 | Stykker | 4:17.63 | 0 | 0 |
| 554 | Kalimbato | 4:17.64 | 0 | 0 |
| 555 | a&b | 4:17.65 | 0 | 0 |
| 556 | Wolf | 4:17.66 | 0 | 0 |
| 557 | Ceo of Crunchwrap Supreme | 4:17.72 | 0 | 0 |
| 558 | Sagara | 4:17.75 | 0 | 0 |
| 558 | danny1234331 | 4:17.75 | 0 | 0 |
| 560 | Sensokaku | 4:17.76 | 0 | 0 |
| 561 | Hazylina | 4:17.78 | 0 | 0 |
| 562 | Vash | 4:17.80 | 0 | 0 |
| 563 | Simon911 | 4:17.83 | 0 | 0 |
| 564 | Willy | 4:17.85 | 0 | 0 |
| 565 | troysmith14 | 4:17.94 | 0 | 0 |
| 566 | Skeleton | 4:17.97 | 0 | 0 |
| 567 | F.L.P-e tank24 | 4:18.03 | 0 | 0 |
| 568 | Abnormal Cybran | 4:18.04 | 0 | 0 |
| 569 | Noah | 4:18.06 | 0 | 0 |
| 570 | FeawenFaerie | 4:18.08 | 0 | 0 |
| 571 | Grey | 4:18.09 | 0 | 0 |
| 572 | Waymint | 4:18.13 | 0 | 0 |
| 573 | Mr Elusive | 4:18.17 | 0 | 0 |
| 574 | Thoughtless | 4:18.22 | 0 | 0 |
| 575 | Rocker | 4:18.23 | 0 | 0 |
| 576 | Amarae | 4:18.24 | 0 | 0 |
| 577 | Lord Adorable | 4:18.26 | 0 | 0 |
| 577 | Fushiggy | 4:18.26 | 0 | 0 |
| 579 | Aerus | 4:18.29 | 0 | 0 |
| 580 | Monarch | 4:18.36 | 0 | 0 |
| 580 | Skrigar | 4:18.36 | 0 | 0 |
| 582 | Ashton_bro | 4:18.40 | 0 | 0 |
| 583 | Tselkie | 4:18.42 | 0 | 0 |
| 584 | Petarp | 4:18.45 | 0 | 0 |
| 585 | Dekkosun™ | 4:18.47 | 0 | 0 |
| 586 | Squeeeeeeeeps | 4:18.52 | 0 | 0 |
| 587 | Verity | 4:18.53 | 0 | 0 |
| 587 | Echor | 4:18.53 | 0 | 0 |
| 589 | Truffle | 4:18.55 | 0 | 0 |
| 590 | GekoKid | 4:18.58 | 0 | 0 |
| 591 | moguli | 4:18.60 | 0 | 0 |
| 592 | fischpferd | 4:18.61 | 0 | 0 |
| 593 | KABOOM | 4:18.62 | 0 | 0 |
| 594 | Zeta | 4:18.64 | 0 | 0 |
| 595 | Frozen Dino | 4:18.72 | 0 | 0 |
| 596 | ToggleRPC | 4:18.79 | 0 | 0 |
| 597 | lonewarrior24 | 4:18.82 | 0 | 0 |
| 598 | Lupeling | 4:18.84 | 0 | 0 |
| 599 | Drako | 4:18.85 | 0 | 0 |
| 600 | BinkbonkDoopy | 4:18.86 | 0 | 0 |
| 601 | rbrules | 4:18.88 | 0 | 0 |
| 602 | Wolf | 4:18.98 | 0 | 0 |
| 603 | ranger481 | 4:19.00 | 0 | 0 |
| 604 | Mr Chip | 4:19.01 | 0 | 0 |
| 605 | EleventyB | 4:19.02 | 0 | 0 |
| 605 | rey20099 | 4:19.02 | 0 | 0 |
| 607 | White Bird | 4:19.05 | 0 | 0 |
| 608 | bloodorangesunrise | 4:19.14 | 0 | 0 |
| 609 | Mr. Moebius | 4:19.21 | 0 | 0 |
| 610 | Treme | 4:19.24 | 0 | 0 |
| 611 | Kepslok | 4:19.25 | 0 | 0 |
| 612 | GMHanzo | 4:19.27 | 0 | 0 |
| 612 | Lémohn | 4:19.27 | 0 | 0 |
| 614 | Lesae Ephu | 4:19.36 | 0 | 0 |
| 615 | Geist | 4:19.37 | 0 | 0 |
| 615 | Fable | 4:19.37 | 0 | 0 |
| 617 | energize | 4:19.41 | 0 | 0 |
| 618 | Entropy can't catch me. | 4:19.42 | 0 | 0 |
| 619 | HeliosMagi | 4:19.51 | 0 | 0 |
| 620 | PowerMeep | 4:19.52 | 0 | 0 |
| 621 | Swizy | 4:19.56 | 0 | 0 |
| 622 | Chaos Titan | 4:19.58 | 0 | 0 |
| 623 | Anrix | 4:19.62 | 0 | 0 |
| 624 | Dexton VI | 4:19.64 | 0 | 0 |
| 625 | Alrunes | 4:19.66 | 0 | 0 |
| 626 | Jumbolaya | 4:19.70 | 0 | 0 |
| 626 | Cletus | 4:19.70 | 0 | 0 |
| 628 | Knight of Boletaria | 4:19.72 | 0 | 0 |
| 629 | PH0NZ3 | 4:19.81 | 0 | 0 |
| 630 | Jimmy Gibbs | 4:19.83 | 0 | 0 |
| 631 | Jeffrey | 4:19.85 | 0 | 0 |
| 632 | Agent-Cryspy | 4:19.90 | 0 | 0 |
| 633 | samson13 | 4:19.94 | 0 | 0 |
| 634 | snow (she/her) | 4:19.95 | 0 | 0 |
| 635 | $neaky | 4:19.99 | 0 | 0 |
| 636 | ChocoChooChoo | 4:20.00 | 0 | 0 |
| 637 | EndlessRayn | 4:20.02 | 0 | 0 |
| 638 | SneakySN | 4:20.04 | 0 | 0 |
| 638 | #YeaCreamOnIt | 4:20.04 | 0 | 0 |
| 640 | Changeling | 4:20.07 | 0 | 0 |
| 641 | Tiyenti | 4:20.08 | 0 | 0 |
| 642 | Myogi Night | 4:20.10 | 0 | 0 |
| 643 | Skye! | 4:20.14 | 0 | 0 |
| 644 | YoloMoth | 4:20.16 | 0 | 0 |
| 644 | SmokedScreen | 4:20.16 | 0 | 0 |
| 644 | quoy | 4:20.16 | 0 | 0 |
| 647 | Aastran | 4:20.18 | 0 | 0 |
| 647 | Yuniki | 4:20.18 | 0 | 0 |
| 649 | RunningMountain | 4:20.20 | 0 | 0 |
| 650 | End_eR | 4:20.23 | 0 | 0 |
| 651 | Jack5 | 4:20.27 | 0 | 0 |
| 652 | [TLP] K4RM4 | 4:20.28 | 0 | 0 |
| 653 | S.D Gabo Tachyon | 4:20.30 | 0 | 0 |
| 654 | dust | 4:20.31 | 0 | 0 |
| 655 | Jigglypuff | 4:20.34 | 0 | 0 |
| 656 | flaniert gerne | 4:20.35 | 0 | 0 |
| 656 | CygnusAutomata | 4:20.35 | 0 | 0 |
| 656 | Ral | 4:20.35 | 0 | 0 |
| 659 | EmeraldSlash | 4:20.37 | 0 | 0 |
| 660 | Racheecha | 4:20.39 | 0 | 0 |
| 661 | TaoSen | 4:20.47 | 0 | 0 |
| 662 | Nioji | 4:20.49 | 0 | 0 |
| 663 | Шоколадка:) | 4:20.58 | 0 | 0 |
| 664 | [REDACTED] | 4:20.65 | 0 | 0 |
| 665 | Breno_SO | 4:20.66 | 0 | 0 |
| 666 | polybius99 | 4:20.67 | 0 | 0 |
| 667 | Zaz Bellum | 4:20.70 | 0 | 0 |
| 668 | Zyon | 4:20.72 | 0 | 0 |
| 669 | BluntButters | 4:20.80 | 0 | 0 |
| 669 | Edragon | 4:20.80 | 0 | 0 |
| 671 | -≺Zinc≻- | 4:20.83 | 0 | 0 |
| 672 | Kiwi | 4:20.84 | 0 | 0 |
| 672 | CopperSail | 4:20.84 | 0 | 0 |
| 674 | Storm the Snep | 4:20.87 | 0 | 0 |
| 674 | Lilith Torres | 4:20.87 | 0 | 0 |
| 676 | Julius Seizure | 4:20.91 | 0 | 0 |
| 677 | Astral107 | 4:20.97 | 0 | 0 |
| 678 | Yuan36 | 4:20.98 | 0 | 0 |
| 679 | [RIOT]ThePlatinTiger | 4:20.99 | 0 | 0 |
| 679 | doughnutdoodles | 4:20.99 | 0 | 0 |
| 679 | Breezy ♠ | 4:20.99 | 0 | 0 |
| 682 | Ar00lhoo | 4:21.02 | 0 | 0 |
| 683 | Mathias | 4:21.05 | 0 | 0 |
| 684 | Woonus | 4:21.10 | 0 | 0 |
| 685 | AlpacaMan | 4:21.13 | 0 | 0 |
| 686 | Todd Baxter | 4:21.16 | 0 | 0 |
| 687 | Aertex | 4:21.18 | 0 | 0 |
| 688 | markschuurman1990 | 4:21.20 | 0 | 0 |
| 689 | mrg.dem | 4:21.22 | 0 | 0 |
| 690 | cr.MK Drive Rush | 4:21.24 | 0 | 0 |
| 691 | lav. | 4:21.25 | 0 | 0 |
| 692 | FatalDestiny | 4:21.29 | 0 | 0 |
| 692 | Solar Field | 4:21.29 | 0 | 0 |
| 694 | Markonick | 4:21.31 | 0 | 0 |
| 695 | Prof. Pinwheel | 4:21.33 | 0 | 0 |
| 696 | Erwan | 4:21.44 | 0 | 0 |
| 697 | Embylles | 4:21.45 | 0 | 0 |
| 698 | TePª | 4:21.49 | 0 | 0 |
| 699 | Seshiruseth | 4:21.53 | 0 | 0 |
| 700 | Müllabholer | 4:21.56 | 0 | 0 |
| 701 | 2ndBillingCycle | 4:21.57 | 0 | 0 |
| 702 | Jaeden7060 | 4:21.59 | 0 | 0 |
| 702 | elijah_huh | 4:21.59 | 0 | 0 |
| 702 | Melfalik | 4:21.59 | 0 | 0 |
| 705 | chatonfusee | 4:21.62 | 0 | 0 |
| 706 | NUKA | 4:21.63 | 0 | 0 |
| 707 | Rudik | 4:21.65 | 0 | 0 |
| 708 | BattleCoder | 4:21.68 | 0 | 0 |
| 709 | Spiffy | 4:21.74 | 0 | 0 |
| 710 | TheFluffyDragon/JBSTheGamer | 4:21.76 | 0 | 0 |
| 711 | delfiler | 4:21.77 | 0 | 0 |
| 711 | Little Arturo | 4:21.77 | 0 | 0 |
| 713 | [RC] | 4:21.79 | 0 | 0 |
| 714 | Samuel9248 | 4:21.83 | 0 | 0 |
| 715 | Percy | 4:21.87 | 0 | 0 |
| 715 | Livonius | 4:21.87 | 0 | 0 |
| 717 | Ivoryshovel | 4:21.88 | 0 | 0 |
| 718 | KittenettiK | 4:21.90 | 0 | 0 |
| 718 | Drac7584 | 4:21.90 | 0 | 0 |
| 720 | LiekMudkipz- | 4:22.09 | 0 | 0 |
| 721 | Rusty | 4:22.14 | 0 | 0 |
| 722 | MP X10L | 4:22.18 | 0 | 0 |
| 723 | Gomorrha | 4:22.28 | 0 | 0 |
| 724 | Blacky Stranger | 4:22.30 | 0 | 0 |
| 724 | Gorgon FW-06 | 4:22.30 | 0 | 0 |
| 724 | DadRocks0324 | 4:22.30 | 0 | 0 |
| 727 | Lady Vira | 4:22.34 | 0 | 0 |
| 728 | Eonic | 4:22.35 | 0 | 0 |
| 729 | masterminer176 | 4:22.44 | 0 | 0 |
| 729 | big cheese | 4:22.44 | 0 | 0 |
| 731 | Zimmerman | 4:22.45 | 0 | 0 |
| 732 | bedlam | 4:22.49 | 0 | 0 |
| 733 | Lone Otaku | 4:22.51 | 0 | 0 |
| 734 | Krazy8s | 4:22.56 | 0 | 0 |
| 734 | Vylos | 4:22.56 | 0 | 0 |
| 736 | delicious Croutons | 4:22.59 | 0 | 0 |
| 736 | The_Mayor | 4:22.59 | 0 | 0 |
| 736 | Delta | 4:22.59 | 0 | 0 |
| 739 | Uranos | 4:22.67 | 0 | 0 |
| 740 | Ramalis | 4:22.70 | 0 | 0 |
| 741 | nope | 4:22.82 | 0 | 0 |
| 742 | DarkGria | 4:22.83 | 0 | 0 |
| 743 | Director Matchkin, the Imprinter | 4:22.86 | 0 | 0 |
| 744 | Queritz | 4:22.90 | 0 | 0 |
| 745 | Unit M4-S0N | 4:22.91 | 0 | 0 |
| 746 | Spur | 4:22.92 | 0 | 0 |
| 746 | Shuya | 4:22.92 | 0 | 0 |
| 748 | jmlog796 | 4:22.96 | 0 | 0 |
| 749 | Silver Fox | 4:22.99 | 0 | 0 |
| 749 | ✪Сталин✪ | 4:22.99 | 0 | 0 |
| 749 | Caradog | 4:22.99 | 0 | 0 |
| 752 | Dante | 4:23.01 | 0 | 0 |
| 753 | megadingus | 4:23.06 | 0 | 0 |
| 754 | ItsMarcus | 4:23.09 | 0 | 0 |
| 755 | Doomsee | 4:23.11 | 0 | 0 |
| 756 | arkhayem | 4:23.12 | 0 | 0 |
| 757 | Hydrochoerus | 4:23.13 | 0 | 0 |
| 758 | MeiBunny | 4:23.14 | 0 | 0 |
| 759 | ℜ|(_TNT_)-*O_O! | 4:23.22 | 0 | 0 |
| 759 | Greenfire DX | 4:23.22 | 0 | 0 |
| 761 | Ȼℍℑ𝔐ЄЯƗĊØɌቿ | 4:23.24 | 0 | 0 |
| 762 | NostalgicRage | 4:23.32 | 0 | 0 |
| 762 | TheWanderer05 | 4:23.32 | 0 | 0 |
| 764 | Pampou | 4:23.34 | 0 | 0 |
| 765 | ZedAxiom | 4:23.37 | 0 | 0 |
| 766 | NoBody | 4:23.41 | 0 | 0 |
| 767 | julio_alexx | 4:23.45 | 0 | 0 |
| 768 | Luis Glacius | 4:23.48 | 0 | 0 |
| 769 | Gdj 24 | 4:23.56 | 0 | 0 |
| 769 | Omega_Raptors | 4:23.56 | 0 | 0 |
| 771 | btyrellb125 | 4:23.60 | 0 | 0 |
| 771 | Lena The Snom Mom | 4:23.60 | 0 | 0 |
| 773 | DJ McBirde | 4:23.68 | 0 | 0 |
| 774 | Norz-Öril'Kern | 4:23.72 | 0 | 0 |
| 775 | Sooth | 4:23.76 | 0 | 0 |
| 776 | Pollywannahacker | 4:23.77 | 0 | 0 |
| 777 | males*icide | 4:23.79 | 0 | 0 |
| 778 | Wolfy Neah | 4:23.81 | 0 | 0 |
| 779 | The_Digimatic | 4:23.85 | 0 | 0 |
| 780 | generally incompetent | 4:23.88 | 0 | 0 |
| 781 | Rensis Coren | 4:23.89 | 0 | 0 |
| 782 | No | 4:23.92 | 0 | 0 |
| 783 | Jesster | 4:23.94 | 0 | 0 |
| 783 | jethro | 4:23.94 | 0 | 0 |
| 785 | Waterproof | 4:23.99 | 0 | 0 |
| 786 | Phayne | 4:24.00 | 0 | 0 |
| 786 | SunlessSoph | 4:24.00 | 0 | 0 |
| 788 | Pato | 4:24.05 | 0 | 0 |
| 789 | The Ninjaneer | 4:24.10 | 0 | 0 |
| 790 | Mr. Doggy | 4:24.12 | 0 | 0 |
| 790 | . | 4:24.12 | 0 | 0 |
| 792 | Ironman_2099 | 4:24.15 | 0 | 0 |
| 793 | Bum Farto | 4:24.17 | 0 | 0 |
| 794 | Sébastien Lecornu II | 4:24.19 | 0 | 0 |
| 795 | Zero | 4:24.20 | 0 | 0 |
| 795 | TheBoredguyyy | 4:24.20 | 0 | 0 |
| 795 | BlackOnyx | 4:24.20 | 0 | 0 |
| 798 | Ken | 4:24.33 | 0 | 0 |
| 799 | Hekko | 4:24.34 | 0 | 0 |
| 800 | andrew200204 | 4:24.38 | 0 | 0 |
| 801 | tigerchef123 | 4:24.44 | 0 | 0 |
| 802 | [iNk] Primus | 4:24.45 | 0 | 0 |
| 803 | Thr | 4:24.47 | 0 | 0 |
| 804 | A1exandro | 4:24.50 | 0 | 0 |
| 805 | Pencilburner | 4:24.54 | 0 | 0 |
| 806 | Hovex the Spider | 4:24.55 | 0 | 0 |
| 807 | Xtr3me_M0nZteR | 4:24.57 | 0 | 0 |
| 808 | Wildclaw | 4:24.64 | 0 | 0 |
| 809 | Skuzzles | 4:24.65 | 0 | 0 |
| 810 | GDABaiano | 4:24.68 | 0 | 0 |
| 811 | ColbyJackCheese | 4:24.80 | 0 | 0 |
| 812 | Tute710 | 4:24.92 | 0 | 0 |
| 813 | Asher | 4:24.95 | 0 | 0 |
| 814 | Nobody | 4:24.96 | 0 | 0 |
| 814 | calne | 4:24.96 | 0 | 0 |
| 816 | Orion | 4:25.00 | 0 | 0 |
| 816 | 猫かわいい | 4:25.00 | 0 | 0 |
| 818 | Krull | 4:25.05 | 0 | 0 |
| 819 | Dipironald | 4:25.07 | 0 | 0 |
| 819 | scorpius | 4:25.07 | 0 | 0 |
| 821 | roandmikey | 4:25.10 | 0 | 0 |
| 822 | Big Disk | 4:25.12 | 0 | 0 |
| 823 | ELECTRICXS | 4:25.17 | 0 | 0 |
| 824 | Frizzybman11 | 4:25.26 | 0 | 0 |
| 825 | ShippWr3ck | 4:25.28 | 0 | 0 |
| 826 | Somehow, the Chicken | 4:25.31 | 0 | 0 |
| 827 | Mazerswift | 4:25.36 | 0 | 0 |
| 828 | and kevin bacon | 4:25.37 | 0 | 0 |
| 829 | pandu | 4:25.40 | 0 | 0 |
| 829 | Alikey | 4:25.40 | 0 | 0 |
| 831 | LOYSHTON | 4:25.42 | 0 | 0 |
| 832 | RaptorPort | 4:25.48 | 0 | 0 |
| 833 | The Biggest [REDACTED] Ogre | 4:25.53 | 0 | 0 |
| 834 | AnalBreacher | 4:25.54 | 0 | 0 |
| 835 | A.K.S. | 4:25.58 | 0 | 0 |
| 836 | Grafitter | 4:25.59 | 0 | 0 |
| 836 | Charlotte | 4:25.59 | 0 | 0 |
| 838 | [Lard] Kriltch | 4:25.61 | 0 | 0 |
| 838 | Yuki Arika Muze | 4:25.61 | 0 | 0 |
| 840 | Gatinho :3 | 4:25.63 | 0 | 0 |
| 841 | Shlock | 4:25.66 | 0 | 0 |
| 842 | razingyayyay | 4:25.69 | 0 | 0 |
| 843 | Ae1oURed | 4:25.70 | 0 | 0 |
| 844 | SWAT | 4:25.72 | 0 | 0 |
| 845 | LelouchXV3 | 4:25.79 | 0 | 0 |
| 846 | DriveOffTheCliff | 4:25.86 | 0 | 0 |
| 847 | Stracker | 4:25.93 | 0 | 0 |
| 848 | Tuman125 | 4:25.94 | 0 | 0 |
| 848 | MichaelMeat | 4:25.94 | 0 | 0 |
| 850 | DON DIGIDON | 4:25.99 | 0 | 0 |
| 850 | raiidem | 4:25.99 | 0 | 0 |
| 852 | phillies27 | 4:26.07 | 0 | 0 |
| 853 | Starwhal | 4:26.29 | 0 | 0 |
| 854 | StevenSite | 4:26.34 | 0 | 0 |
| 855 | Arphey01 | 4:26.35 | 0 | 0 |
| 856 | Hirochi | 4:26.38 | 0 | 0 |
| 857 | Starlord | 4:26.40 | 0 | 0 |
| 858 | archdeco | 4:26.42 | 0 | 0 |
| 858 | jetknife | 4:26.42 | 0 | 0 |
| 860 | pox | 4:26.48 | 0 | 0 |
| 861 | Ame | 4:26.50 | 0 | 0 |
| 862 | S.Kappelmann | 4:26.51 | 0 | 0 |
| 863 | ARandomEel | 4:26.52 | 0 | 0 |
| 864 | T8Destroyer | 4:26.53 | 0 | 0 |
| 865 | Apocalyptic Bunny | 4:26.59 | 0 | 0 |
| 866 | Superdav10 | 4:26.63 | 0 | 0 |
| 867 | Злой Noob | 4:26.66 | 0 | 0 |
| 868 | FyreWall | 4:26.67 | 0 | 0 |
| 869 | Uria | 4:26.74 | 0 | 0 |
| 870 | marf | 4:26.78 | 0 | 0 |
| 870 | BigToni | 4:26.78 | 0 | 0 |
| 872 | Getty Image Egg Supreme | 4:26.80 | 0 | 0 |
| 872 | Slobbercat | 4:26.80 | 0 | 0 |
| 874 | Tora Phobos | 4:26.82 | 0 | 0 |
| 875 | Joselu25 | 4:26.85 | 0 | 0 |
| 876 | Golden Goblin | 4:26.88 | 0 | 0 |
| 877 | G8R | 4:26.89 | 0 | 0 |
| 878 | CrazyPass | 4:26.97 | 0 | 0 |
| 879 | Pal | 4:27.08 | 0 | 0 |
| 880 | Ayre | 4:27.13 | 0 | 0 |
| 881 | Vorpal Soul | 4:27.14 | 0 | 0 |
| 882 | Hiddelgreyk | 4:27.15 | 0 | 0 |
| 883 | dryco | 4:27.22 | 0 | 0 |
| 884 | Ember | 4:27.27 | 0 | 0 |
| 885 | Geraldo | 4:27.33 | 0 | 0 |
| 886 | Arvorian | 4:27.34 | 0 | 0 |
| 887 | BaRa.95. | 4:27.36 | 0 | 0 |
| 888 | einEtwas | 4:27.38 | 0 | 0 |
| 889 | xXSec_Saven66duXx | 4:27.39 | 0 | 0 |
| 890 | nie majki; | 4:27.42 | 0 | 0 |
| 891 | Nick | 4:27.44 | 0 | 0 |
| 892 | BedrokiV | 4:27.52 | 0 | 0 |
| 892 | ^1HIV+ ^7|^9 Startkopierer | 4:27.52 | 0 | 0 |
| 894 | xanthousphoenix | 4:27.56 | 0 | 0 |
| 895 | Keflon | 4:27.59 | 0 | 0 |
| 896 | Oldman | 4:27.64 | 0 | 0 |
| 897 | Earthnuker | 4:27.65 | 0 | 0 |
| 898 | Potted Mushroom | 4:27.66 | 0 | 0 |
| 899 | #KallorDidNothingWrong | 4:27.69 | 0 | 0 |
| 900 | itzAndre | 4:27.70 | 0 | 0 |
| 901 | Deathbringer | 4:27.78 | 0 | 0 |
| 902 | NePurple | 4:27.93 | 0 | 0 |
| 903 | AI-COM//SVRN | 4:27.96 | 0 | 0 |
| 903 | momased | 4:27.96 | 0 | 0 |
| 905 | Kai111 (Rusty) | 4:28.02 | 0 | 0 |
| 906 | Zoey Blackwood | 4:28.04 | 0 | 0 |
| 907 | §★ Vatra ★§ | 4:28.08 | 0 | 0 |
| 908 | Acedia | 4:28.16 | 0 | 0 |
| 909 | Cooler Mensch | 4:28.18 | 0 | 0 |
| 909 | SlenderBonnie | 4:28.18 | 0 | 0 |
| 911 | B'neppe | 4:28.20 | 0 | 0 |
| 911 | Phenix85 | 4:28.20 | 0 | 0 |
| 913 | Final | 4:28.25 | 0 | 0 |
| 914 | Squib | 4:28.26 | 0 | 0 |
| 915 | Seere | 4:28.27 | 0 | 0 |
| 916 | ossizorg | 4:28.29 | 0 | 0 |
| 916 | GeorgieBoi | 4:28.29 | 0 | 0 |
| 918 | blackmaester | 4:28.31 | 0 | 0 |
| 919 | Readek | 4:28.37 | 0 | 0 |
| 920 | yionpip | 4:28.40 | 0 | 0 |
| 921 | Nexus | 4:28.42 | 0 | 0 |
| 921 | Bohemius | 4:28.42 | 0 | 0 |
| 923 | dynofritz | 4:28.45 | 0 | 0 |
| 924 | Bob Ross | 4:28.46 | 0 | 0 |
| 925 | Dubblr | 4:28.48 | 0 | 0 |
| 926 | Faygo D. Bullchit | 4:28.50 | 0 | 0 |
| 927 | CS | 4:28.57 | 0 | 0 |
| 928 | Duke Swampy | 4:28.60 | 0 | 0 |
| 928 | TheHumanHighlighter | 4:28.60 | 0 | 0 |
| 930 | Sunzara | 4:28.62 | 0 | 0 |
| 931 | Old Bastard | 4:28.63 | 0 | 0 |
| 932 | ThadeusBK | 4:28.66 | 0 | 0 |
| 933 | raccoon | 4:28.71 | 0 | 0 |
| 934 | Triumphant Trump (Noties Muted) | 4:28.79 | 0 | 0 |
| 935 | Subhumanoided | 4:28.82 | 0 | 0 |
| 936 | Spearmint | 4:28.83 | 0 | 0 |
| 937 | Tony Twohands | 4:28.88 | 0 | 0 |
| 938 | 4onen | 4:28.91 | 0 | 0 |
| 939 | Drahcir Srewop | 4:28.95 | 0 | 0 |
| 940 | Nephuxs | 4:29.00 | 0 | 0 |
| 940 | Grev "The Editor" | 4:29.00 | 0 | 0 |
| 942 | Reaster | 4:29.08 | 0 | 0 |
| 943 | James Boned | 4:29.10 | 0 | 0 |
| 944 | Leito317 | 4:29.24 | 0 | 0 |
| 945 | Filounderstover | 4:29.26 | 0 | 0 |
| 946 | The Withered Remnant Effigy | 4:29.28 | 0 | 0 |
| 947 | Blupsy | 4:29.29 | 0 | 0 |
| 948 | BlackKnightPraetor16 | 4:29.34 | 0 | 0 |
| 949 | HoboScience | 4:29.40 | 0 | 0 |
| 950 | PuroWag | 4:29.41 | 0 | 0 |
| 951 | TantasStarke | 4:29.43 | 0 | 0 |
| 952 | blur | 4:29.45 | 0 | 0 |
| 953 | Zaz | 4:29.51 | 0 | 0 |
| 954 | 360NoBrain | 4:29.53 | 0 | 0 |
| 955 | PeterComputer | 4:29.57 | 0 | 0 |
| 956 | ruteqube | 4:29.63 | 0 | 0 |
| 956 | Succulent Pine from the Tree | 4:29.63 | 0 | 0 |
| 958 | Fictive | 4:29.66 | 0 | 0 |
| 959 | LiquidShark | 4:29.72 | 0 | 0 |
| 960 | VeloxCheetah | 4:29.74 | 0 | 0 |
| 961 | GameSmith | 4:29.77 | 0 | 0 |
| 962 | russ117 | 4:29.80 | 0 | 0 |
| 963 | BigPotato | 4:29.82 | 0 | 0 |
| 964 | EnchantedRuffia144 | 4:29.85 | 0 | 0 |
| 965 | Toxicologixal | 4:29.91 | 0 | 0 |
| 966 | the prube | 4:29.92 | 0 | 0 |
| 967 | witemilk1 | 4:29.94 | 0 | 0 |
| 968 | IsmaZheCat | 4:30.00 | 0 | 0 |
| 969 | ADWINWSF | 4:30.06 | 0 | 0 |
| 970 | lungfish | 4:30.14 | 0 | 0 |
| 971 | MrXano | 4:30.15 | 0 | 0 |
| 972 | LOLO FAK | 4:30.19 | 0 | 0 |
| 973 | Adventure Buddy | 4:30.22 | 0 | 0 |
| 974 | Vanathan | 4:30.23 | 0 | 0 |
| 975 | SirWanksalot | 4:30.24 | 0 | 0 |
| 975 | Eskora | 4:30.24 | 0 | 0 |
| 977 | DF4 | 4:30.25 | 0 | 0 |
| 977 | Luvas | 4:30.25 | 0 | 0 |
| 979 | Shyny Magikarp 🔸 | 4:30.31 | 0 | 0 |
| 980 | 20GoldPieces | 4:30.43 | 0 | 0 |
| 981 | Drakkensf | 4:30.44 | 0 | 0 |
| 982 | Neko14789 | 4:30.50 | 0 | 0 |
| 983 | Crubo | 4:30.52 | 0 | 0 |
| 984 | Vyneci | 4:30.56 | 0 | 0 |
| 985 | mmph | 4:30.57 | 0 | 0 |
| 986 | -zaz23- | 4:30.59 | 0 | 0 |
| 987 | Crespojazzman | 4:30.61 | 0 | 0 |
| 988 | ImNotFine | 4:30.65 | 0 | 0 |
| 988 | BiGdIcMiKe | 4:30.65 | 0 | 0 |
| 990 | Dotza | 4:30.69 | 0 | 0 |
| 991 | JonTigerBoy | 4:30.74 | 0 | 0 |
| 992 | Jonny | 4:30.77 | 0 | 0 |
| 993 | Errante | 4:30.78 | 0 | 0 |
| 994 | femptocrisis | 4:30.79 | 0 | 0 |
| 995 | Owem | 4:30.82 | 0 | 0 |
| 996 | Bilbobangboom | 4:30.88 | 0 | 0 |
| 997 | Slim Jimmin | 4:30.91 | 0 | 0 |
| 998 | Dimanchella | 4:30.92 | 0 | 0 |
| 999 | NaterrPinata | 4:30.96 | 0 | 0 |
| 999 | Shadesofthepast | 4:30.96 | 0 | 0 |
| 1,001 | RunawayJesus | 4:30.99 | 0 | 0 |
| 1,002 | AlphyCAT | 4:31.00 | 0 | 0 |
| 1,003 | Big Boi Bazunga | 4:31.02 | 0 | 0 |
| 1,004 | Dog Time :) | 4:31.09 | 0 | 0 |
| 1,005 | Buster | 4:31.12 | 0 | 0 |
| 1,006 | DEMON | 4:31.13 | 0 | 0 |
| 1,007 | LkProd | 4:31.14 | 0 | 0 |
| 1,007 | 54mm7 | 4:31.14 | 0 | 0 |
| 1,009 | LauncLaunc | 4:31.21 | 0 | 0 |
| 1,010 | SerapH | 4:31.34 | 0 | 0 |
| 1,010 | WiteNite | 4:31.34 | 0 | 0 |
| 1,012 | TS_Mind_Swept | 4:31.35 | 0 | 0 |
| 1,013 | Vivid Empress | 4:31.36 | 0 | 0 |
| 1,014 | ֆהტϣ | 4:31.39 | 0 | 0 |
| 1,015 | Lief | 4:31.44 | 0 | 0 |
| 1,016 | SauronGamer | 4:31.46 | 0 | 0 |
| 1,017 | 黒 Crow | 4:31.48 | 0 | 0 |
| 1,018 | Mythic | 4:31.50 | 0 | 0 |
| 1,019 | VZD | 4:31.54 | 0 | 0 |
| 1,020 | Gaz | 4:31.62 | 0 | 0 |
| 1,021 | Pomel ⛟ | 4:31.67 | 0 | 0 |
| 1,022 | Can of Toast | 4:31.71 | 0 | 0 |
| 1,023 | Sky Captain | 4:31.76 | 0 | 0 |
| 1,024 | [IT]And24 | 4:31.79 | 0 | 0 |
| 1,025 | Sandwich | 4:31.90 | 0 | 0 |
| 1,026 | Booler | 4:32.08 | 0 | 0 |
| 1,027 | ahtnos | 4:32.09 | 0 | 0 |
| 1,028 | Niitrospeed | 4:32.12 | 0 | 0 |
| 1,029 | Faeye | 4:32.13 | 0 | 0 |
| 1,030 | badjackjack | 4:32.18 | 0 | 0 |
| 1,031 | Speccy | 4:32.25 | 0 | 0 |
| 1,031 | fun | 4:32.25 | 0 | 0 |
| 1,031 | Jezo | 4:32.25 | 0 | 0 |
| 1,034 | Hars | 4:32.30 | 0 | 0 |
| 1,035 | BlueMage10 | 4:32.32 | 0 | 0 |
| 1,036 | KingSpammerNerd | 4:32.33 | 0 | 0 |
| 1,037 | TheDukeOfTaco | 4:32.37 | 0 | 0 |
| 1,037 | The Male Gamer | 4:32.37 | 0 | 0 |
| 1,037 | FENT FIEND | 4:32.37 | 0 | 0 |
| 1,040 | Interpunct | 4:32.38 | 0 | 0 |
| 1,041 | sbeve | 4:32.43 | 0 | 0 |
| 1,042 | Shooter | 4:32.44 | 0 | 0 |
| 1,043 | Jim Percy | 4:32.46 | 0 | 0 |
| 1,044 | Bear | 4:32.49 | 0 | 0 |
| 1,045 | Danielwow | 4:32.54 | 0 | 0 |
| 1,046 | PatTheHyruler | 4:32.58 | 0 | 0 |
| 1,047 | Lucky the Milky | 4:32.67 | 0 | 0 |
| 1,048 | theninjacat799 | 4:32.75 | 0 | 0 |
| 1,049 | Unlight369 | 4:32.76 | 0 | 0 |
| 1,049 | HJQLF | 4:32.76 | 0 | 0 |
| 1,051 | Oblivious | 4:32.77 | 0 | 0 |
| 1,052 | Tem | 4:32.79 | 0 | 0 |
| 1,052 | Niko | 4:32.79 | 0 | 0 |
| 1,052 | Derezium | 4:32.79 | 0 | 0 |
| 1,055 | dragnor | 4:32.82 | 0 | 0 |
| 1,056 | SnailMango | 4:32.84 | 0 | 0 |
| 1,057 | Cheesy Bean and Rice Burrito | 4:32.88 | 0 | 0 |
| 1,058 | LemonIsland | 4:32.95 | 0 | 0 |
| 1,059 | 25 минут кайфа | 4:33.06 | 0 | 0 |
| 1,060 | Wourder | 4:33.07 | 0 | 0 |
| 1,060 | 0Prat4 | 4:33.07 | 0 | 0 |
| 1,062 | Quantum Glitch | 4:33.08 | 0 | 0 |
| 1,063 | Sunkaaaaaaaaan | 4:33.28 | 0 | 0 |
| 1,064 | do it the philZstyle | 4:33.29 | 0 | 0 |
| 1,065 | Buttlet | 4:33.32 | 0 | 0 |
| 1,066 | TetchedEiner® | 4:33.35 | 0 | 0 |
| 1,067 | Kirby | 4:33.42 | 0 | 0 |
| 1,068 | Pog ! | 4:33.47 | 0 | 0 |
| 1,069 | Apple | 4:33.48 | 0 | 0 |
| 1,070 | ThatGuyBrit | 4:33.52 | 0 | 0 |
| 1,071 | Butler | 4:33.55 | 0 | 0 |
| 1,072 | Simon | 4:33.58 | 0 | 0 |
| 1,073 | TheRecessMaster101 | 4:33.62 | 0 | 0 |
| 1,074 | FaynVonFloof | 4:33.66 | 0 | 0 |
| 1,075 | Poi | 4:33.68 | 0 | 0 |
| 1,076 | Navillus64 | 4:33.75 | 0 | 0 |
| 1,077 | NoraBytes ΘΔ | 4:33.76 | 0 | 0 |
| 1,078 | UrAvggJoe | 4:33.86 | 0 | 0 |
| 1,079 | OnlyAfro | 4:33.89 | 0 | 0 |
| 1,080 | Doritos® Locos Taco | 4:33.90 | 0 | 0 |
| 1,081 | Blueberry Muffin Massacre | 4:33.92 | 0 | 0 |
| 1,082 | Akazs | 4:34.10 | 0 | 0 |
| 1,083 | Nefroh | 4:34.11 | 0 | 0 |
| 1,084 | Sturmwut | 4:34.13 | 0 | 0 |
| 1,084 | EzraW118 | 4:34.13 | 0 | 0 |
| 1,086 | ^jnz | 4:34.18 | 0 | 0 |
| 1,086 | キタ一一(゚∀゚)一一!! | 4:34.18 | 0 | 0 |
| 1,088 | RyuKyotei | 4:34.19 | 0 | 0 |
| 1,088 | Krumpus | 4:34.19 | 0 | 0 |
| 1,088 | AnonSchlingel | 4:34.19 | 0 | 0 |
| 1,091 | Onyon | 4:34.24 | 0 | 0 |
| 1,092 | Then000bster | 4:34.27 | 0 | 0 |
| 1,093 | violet komoa | 4:34.29 | 0 | 0 |
| 1,094 | Kubulinux | 4:34.30 | 0 | 0 |
| 1,095 | An Innocuous Chef | 4:34.31 | 0 | 0 |
| 1,096 | SharoffKot | 4:34.39 | 0 | 0 |
| 1,097 | Night Δ | 4:34.41 | 0 | 0 |
| 1,097 | [BIT] Iroden | 4:34.41 | 0 | 0 |
| 1,099 | MacGuffin_ | 4:34.42 | 0 | 0 |
| 1,100 | Kivvi | 4:34.46 | 0 | 0 |
| 1,101 | N | 4:34.58 | 0 | 0 |
| 1,102 | Captain Frosty | 4:34.61 | 0 | 0 |
| 1,103 | Loving Wolf | 4:34.65 | 0 | 0 |
| 1,104 | Vegetable Broth | 4:34.68 | 0 | 0 |
| 1,105 | Zarifi | 4:34.85 | 0 | 0 |
| 1,105 | Toastmaster | 4:34.85 | 0 | 0 |
| 1,105 | Legoyoda | 4:34.85 | 0 | 0 |
| 1,108 | Darth Sand | 4:34.92 | 0 | 0 |
| 1,109 | Captain Clambake | 4:34.93 | 0 | 0 |
| 1,110 | hostile waffle | 4:34.96 | 0 | 0 |
| 1,111 | Da Doom Man | 4:34.99 | 0 | 0 |
| 1,112 | Player145 | 4:35.01 | 0 | 0 |
| 1,112 | PayPalMeFuzzby | 4:35.01 | 0 | 0 |
| 1,114 | Bagga | 4:35.02 | 0 | 0 |
| 1,115 | Proud R. L. Stine Voter | 4:35.03 | 0 | 0 |
| 1,116 | Mrlong2 | 4:35.08 | 0 | 0 |
| 1,117 | Sibsen | 4:35.13 | 0 | 0 |
| 1,118 | BesRezen | 4:35.16 | 0 | 0 |
| 1,118 | Pinguin | 4:35.16 | 0 | 0 |
| 1,120 | Naikel [FR] | 4:35.20 | 0 | 0 |
| 1,121 | Tesselode | 4:35.21 | 0 | 0 |
| 1,122 | Divisionary | 4:35.24 | 0 | 0 |
| 1,123 | Rain | 4:35.28 | 0 | 0 |
| 1,124 | UncleJibJab | 4:35.38 | 0 | 0 |
| 1,125 | Kowhai | 4:35.43 | 0 | 0 |
| 1,126 | Adrimg_rider | 4:35.46 | 0 | 0 |
| 1,127 | Lord_Of_Weasels | 4:35.49 | 0 | 0 |
| 1,127 | listlessvoid | 4:35.49 | 0 | 0 |
| 1,129 | Austint30 | 4:35.50 | 0 | 0 |
| 1,130 | puter #MTWD | 4:35.51 | 0 | 0 |
| 1,130 | S P A T H ☆ | 4:35.51 | 0 | 0 |
| 1,132 | SillySean | 4:35.55 | 0 | 0 |
| 1,133 | ultravirus | 4:35.56 | 0 | 0 |
| 1,134 | SenseofCLouD | 4:35.62 | 0 | 0 |
| 1,134 | Roggee | 4:35.62 | 0 | 0 |
| 1,136 | Aonee | 4:35.66 | 0 | 0 |
| 1,137 | Birdiot | 4:35.76 | 0 | 0 |
| 1,138 | thom6777 | 4:35.85 | 0 | 0 |
| 1,139 | keygenmayor | 4:35.96 | 0 | 0 |
| 1,140 | ado line | 4:35.99 | 0 | 0 |
| 1,141 | Loreckine | 4:36.04 | 0 | 0 |
| 1,142 | Cultured | 4:36.08 | 0 | 0 |
| 1,143 | Todesschnitzel25 | 4:36.11 | 0 | 0 |
| 1,144 | Jack's Soaked Sandwich | 4:36.13 | 0 | 0 |
| 1,145 | Nanohm The Protogen | 4:36.17 | 0 | 0 |
| 1,146 | Mastan | 4:36.22 | 0 | 0 |
| 1,147 | Kuray | 4:36.23 | 0 | 0 |
| 1,148 | Neko Senpai | 4:36.25 | 0 | 0 |
| 1,149 | ataraxia.wav | 4:36.30 | 0 | 0 |
| 1,149 | Xaiux | 4:36.30 | 0 | 0 |
| 1,151 | VectorWuffy | 4:36.32 | 0 | 0 |
| 1,152 | Ròókie Red | 4:36.39 | 0 | 0 |
| 1,152 | Goybs | 4:36.39 | 0 | 0 |
| 1,154 | ArkhOn) | 4:36.47 | 0 | 0 |
| 1,155 | Vettrun | 4:36.50 | 0 | 0 |
| 1,156 | A | 4:36.60 | 0 | 0 |
| 1,157 | Mir | 4:36.62 | 0 | 0 |
| 1,158 | Yuki | 4:36.64 | 0 | 0 |
| 1,158 | Lethologica7 | 4:36.64 | 0 | 0 |
| 1,160 | Mokiflip | 4:36.72 | 0 | 0 |
| 1,160 | Gandonio Pripizduchi | 4:36.72 | 0 | 0 |
| 1,162 | Winters | 4:36.76 | 0 | 0 |
| 1,163 | McNaughty | 4:36.80 | 0 | 0 |
| 1,164 | Toojes | 4:36.82 | 0 | 0 |
| 1,165 | Lag1ttaja | 4:36.88 | 0 | 0 |
| 1,166 | NK - Néko | 4:36.93 | 0 | 0 |
| 1,167 | PalmTopDuck | 4:36.98 | 0 | 0 |
| 1,168 | Thunderfeet | 4:37.05 | 0 | 0 |
| 1,169 | Savage Tuna | 4:37.17 | 0 | 0 |
| 1,170 | abseth | 4:37.20 | 0 | 0 |
| 1,171 | Dubious | 4:37.25 | 0 | 0 |
| 1,172 | MackyAligatorul | 4:37.27 | 0 | 0 |
| 1,173 | Euphoria.exe | 4:37.31 | 0 | 0 |
| 1,173 | Jaded Tyrant | 4:37.31 | 0 | 0 |
| 1,175 | Ben Reyhom | 4:37.35 | 0 | 0 |
| 1,176 | 🌺 CallMeAshley 🌺 | 4:37.36 | 0 | 0 |
| 1,177 | Cabanery👾 | 4:37.37 | 0 | 0 |
| 1,177 | MileZ | 4:37.37 | 0 | 0 |
| 1,179 | Emerald_Pick | 4:37.38 | 0 | 0 |
| 1,180 | mos | 4:37.40 | 0 | 0 |
| 1,181 | Varlok | 4:37.45 | 0 | 0 |
| 1,182 | Miniature Pixel | 4:37.46 | 0 | 0 |
| 1,183 | Lakota | 4:37.47 | 0 | 0 |
| 1,184 | I SMASH ROCKS | 4:37.49 | 0 | 0 |
| 1,185 | johnchen40904 | 4:37.53 | 0 | 0 |
| 1,186 | Adrenalin | 4:37.54 | 0 | 0 |
| 1,187 | Exoman | 4:37.56 | 0 | 0 |
| 1,188 | Osvoldon | 4:37.59 | 0 | 0 |
| 1,189 | Phaserlight | 4:37.63 | 0 | 0 |
| 1,190 | D2C | Chrisc02 | 4:37.65 | 0 | 0 |
| 1,191 | Ara | 4:37.82 | 0 | 0 |
| 1,192 | Ulnarevern | 4:37.89 | 0 | 0 |
| 1,193 | Tom | 4:37.95 | 0 | 0 |
| 1,193 | Texugops☯ | 4:37.95 | 0 | 0 |
| 1,195 | Mud | 4:38.01 | 0 | 0 |
| 1,196 | juvo | 4:38.05 | 0 | 0 |
| 1,196 | Wabi-Sabi | 4:38.05 | 0 | 0 |
| 1,198 | ErraticVigor | 4:38.15 | 0 | 0 |
| 1,199 | Stracciatella | 4:38.26 | 0 | 0 |
| 1,200 | jut | 4:38.28 | 0 | 0 |
| 1,201 | FreakingAwesomeWooper | 4:38.29 | 0 | 0 |
| 1,202 | cloudycam935 | 4:38.30 | 0 | 0 |
| 1,203 | Limola | 4:38.33 | 0 | 0 |
| 1,204 | P3F1 | 4:38.38 | 0 | 0 |
| 1,205 | Holt | 4:38.42 | 0 | 0 |
| 1,206 | Fleabag | 4:38.58 | 0 | 0 |
| 1,207 | Samadamadingdong | 4:38.65 | 0 | 0 |
| 1,208 | sylvan | 4:38.73 | 0 | 0 |
| 1,209 | Diabetis4life | 4:38.78 | 0 | 0 |
| 1,210 | Duke333 | 4:38.81 | 0 | 0 |
| 1,211 | Magister Ludi | 4:38.86 | 0 | 0 |
| 1,212 | Lunazoin | 4:38.90 | 0 | 0 |
| 1,213 | Beskar | 4:38.91 | 0 | 0 |
| 1,214 | SuperCrunch | 4:38.96 | 0 | 0 |
| 1,215 | olivqe | 4:38.97 | 0 | 0 |
| 1,216 | NyaNekoEngine | 4:39.01 | 0 | 0 |
| 1,217 | wladbelsky | 4:39.03 | 0 | 0 |
| 1,218 | Guterson | 4:39.08 | 0 | 0 |
| 1,219 | LittleHappyWolf | 4:39.16 | 0 | 0 |
| 1,220 | Uholyn | 4:39.20 | 0 | 0 |
| 1,220 | SkyCaptain502 | 4:39.20 | 0 | 0 |
| 1,222 | CreamyK | 4:39.25 | 0 | 0 |
| 1,223 | Zombie_B | 4:39.26 | 0 | 0 |
| 1,224 | pie | 4:39.32 | 0 | 0 |
| 1,225 | Mejartion | 4:39.33 | 0 | 0 |
| 1,225 | StephanoLight | 4:39.33 | 0 | 0 |
| 1,227 | Dick Splash | 4:39.59 | 0 | 0 |
| 1,228 | Leviticus Blue | 4:39.61 | 0 | 0 |
| 1,229 | Spiralasis | 4:39.62 | 0 | 0 |
| 1,230 | Arc Dark | 4:39.63 | 0 | 0 |
| 1,231 | . | 4:39.70 | 0 | 0 |
| 1,232 | DjamKO94 | 4:39.75 | 0 | 0 |
| 1,233 | AndonisLP | 4:39.78 | 0 | 0 |
| 1,234 | Tokyo. | 4:39.83 | 0 | 0 |
| 1,235 | Combat Corpse | 4:39.87 | 0 | 0 |
| 1,236 | pager | 4:39.88 | 0 | 0 |
| 1,236 | Fangs1011 | 4:39.88 | 0 | 0 |
| 1,238 | A Very Scary Skelly | 4:39.95 | 0 | 0 |
| 1,239 | timanza | 4:40.10 | 0 | 0 |
| 1,240 | Whiro | 4:40.11 | 0 | 0 |
| 1,241 | Me an intellectual | 4:40.13 | 0 | 0 |
| 1,242 | Nounverber | 4:40.23 | 0 | 0 |
| 1,243 | Samimimi | 4:40.27 | 0 | 0 |
| 1,244 | Mellow Manta | 4:40.39 | 0 | 0 |
| 1,245 | replikaeyes | 4:40.51 | 0 | 0 |
| 1,246 | Pyzo | 4:40.57 | 0 | 0 |
| 1,246 | TheKillingJoke | 4:40.57 | 0 | 0 |
| 1,248 | Guts | 4:40.59 | 0 | 0 |
| 1,248 | Basement Security | 4:40.59 | 0 | 0 |
| 1,250 | kipi[kV] | 4:40.60 | 0 | 0 |
| 1,251 | Jack-O | 4:40.68 | 0 | 0 |
| 1,252 | Minecraft27Xbox | 4:40.70 | 0 | 0 |
| 1,253 | Gerson Boon | 4:40.82 | 0 | 0 |
| 1,254 | Schranzinator | 4:40.86 | 0 | 0 |
| 1,255 | Blexyde | 4:40.89 | 0 | 0 |
| 1,255 | Figs | 4:40.89 | 0 | 0 |
| 1,257 | Kathumandu | 4:40.92 | 0 | 0 |
| 1,258 | Terr4 | 4:41.02 | 0 | 0 |
| 1,259 | HISKI LP | 4:41.05 | 0 | 0 |
| 1,260 | Namoren | 4:41.12 | 0 | 0 |
| 1,260 | DeedleFake | 4:41.12 | 0 | 0 |
| 1,262 | Blanket Man | 4:41.17 | 0 | 0 |
| 1,263 | Cakey | 4:41.19 | 0 | 0 |
| 1,264 | potionblue | 4:41.34 | 0 | 0 |
| 1,264 | Sr. Galán | 4:41.34 | 0 | 0 |
| 1,266 | BurritoBazooka | 4:41.35 | 0 | 0 |
| 1,267 | Zero_Infinity | 4:41.41 | 0 | 0 |
| 1,268 | FabledFoe | 4:41.51 | 0 | 0 |
| 1,269 | RUDrew | 4:41.53 | 0 | 0 |
| 1,270 | SwagCorn | 4:41.54 | 0 | 0 |
| 1,271 | Hightree | 4:41.69 | 0 | 0 |
| 1,272 | r3 | 4:41.71 | 0 | 0 |
| 1,273 | Synchronize | 4:41.74 | 0 | 0 |
| 1,274 | TomMyyY | 4:41.83 | 0 | 0 |
| 1,275 | futpib | 4:41.85 | 0 | 0 |
| 1,276 | Cerberus14 | 4:41.87 | 0 | 0 |
| 1,277 | Eversizze | 4:41.88 | 0 | 0 |
| 1,278 | MidKnightRanger | 4:41.89 | 0 | 0 |
| 1,279 | PlΣXi | 4:41.93 | 0 | 0 |
| 1,280 | DefraggedSSD | 4:42.02 | 0 | 0 |
| 1,281 | The Creeping Geek | 4:42.15 | 0 | 0 |
| 1,281 | D.Dagger22 | 4:42.15 | 0 | 0 |
| 1,283 | rip in pieces | 4:42.16 | 0 | 0 |
| 1,284 | Gragzone | 4:42.22 | 0 | 0 |
| 1,285 | ash | 4:42.36 | 0 | 0 |
| 1,286 | justpeace.jp | 4:42.37 | 0 | 0 |
| 1,287 | Zebra | 4:42.39 | 0 | 0 |
| 1,288 | Leithium | 4:42.41 | 0 | 0 |
| 1,289 | Cross | 4:42.42 | 0 | 0 |
| 1,290 | VroomNDoom | 4:42.44 | 0 | 0 |
| 1,290 | Rei | 4:42.44 | 0 | 0 |
| 1,292 | Torja! | 4:42.50 | 0 | 0 |
| 1,292 | Berndbob Totkopf | 4:42.50 | 0 | 0 |
| 1,294 | imxRaven | 4:42.51 | 0 | 0 |
| 1,294 | HardRoar|CEOofSex | 4:42.51 | 0 | 0 |
| 1,296 | Suffer | 4:42.67 | 0 | 0 |
| 1,297 | Liquid Fear | 4:42.74 | 0 | 0 |
| 1,298 | Broly | 4:42.96 | 0 | 0 |
| 1,299 | jnfred | 4:43.00 | 0 | 0 |
| 1,300 | félix | 4:43.03 | 0 | 0 |
| 1,301 | Azure | 4:43.11 | 0 | 0 |
| 1,301 | TrevDog | 4:43.11 | 0 | 0 |
| 1,303 | GetEmOtterHere | 4:43.14 | 0 | 0 |
| 1,304 | Pizza Parker | 4:43.18 | 0 | 0 |
| 1,305 | MARIODROPS | 4:43.19 | 0 | 0 |
| 1,306 | Humphry | 4:43.24 | 0 | 0 |
| 1,307 | rilelyscastle | 4:43.25 | 0 | 0 |
| 1,308 | Animax | 4:43.29 | 0 | 0 |
| 1,309 | Archi | 4:43.31 | 0 | 0 |
| 1,310 | Fenrir | 4:43.38 | 0 | 0 |
| 1,311 | tatertotsrock | 4:43.43 | 0 | 0 |
| 1,312 | Magnowser | 4:43.46 | 0 | 0 |
| 1,313 | Mugen | 4:43.56 | 0 | 0 |
| 1,313 | serana luftheart | 4:43.56 | 0 | 0 |
| 1,315 | TheRegalKing | 4:43.57 | 0 | 0 |
| 1,316 | ZyleXT | 4:43.68 | 0 | 0 |
| 1,317 | Chaos Chris | 4:43.75 | 0 | 0 |
| 1,318 | Deletior | 4:43.83 | 0 | 0 |
| 1,319 | Wulg | 4:43.84 | 0 | 0 |
| 1,319 | Cobaltfox41 | 4:43.84 | 0 | 0 |
| 1,321 | TheEdIsNotAmused | 4:43.86 | 0 | 0 |
| 1,322 | IzPaladin | 4:43.91 | 0 | 0 |
| 1,323 | fleish dawg | 4:43.94 | 0 | 0 |
| 1,324 | JamesArk | 4:44.02 | 0 | 0 |
| 1,325 | Jace | 4:44.10 | 0 | 0 |
| 1,326 | Reinforce Virta | 4:44.12 | 0 | 0 |
| 1,327 | Mortin | 4:44.14 | 0 | 0 |
| 1,328 | dollcorpsething | 4:44.15 | 0 | 0 |
| 1,329 | Pixelbo | 4:44.22 | 0 | 0 |
| 1,330 | VisMortis | 4:44.24 | 0 | 0 |
| 1,331 | FungusLord | 4:44.26 | 0 | 0 |
| 1,332 | gizzard | 4:44.40 | 0 | 0 |
| 1,333 | | 4:44.42 | 0 | 0 |
| 1,334 | Sgt. Giclette | 4:44.47 | 0 | 0 |
| 1,335 | AverkosWolf | 4:44.53 | 0 | 0 |
| 1,336 | Phoennixx | 4:44.54 | 0 | 0 |
| 1,336 | Mettaray | 4:44.54 | 0 | 0 |
| 1,338 | hip crusher | 4:44.64 | 0 | 0 |
| 1,339 | Günther Fox | 4:44.65 | 0 | 0 |
| 1,340 | Mac_SirBlickith | 4:44.67 | 0 | 0 |
| 1,341 | The Moonlit Arts | 4:44.80 | 0 | 0 |
| 1,342 | Prinz Lunas Noroi | 4:44.81 | 0 | 0 |
| 1,342 | worker bee mentality | 4:44.81 | 0 | 0 |
| 1,344 | Traco | 4:44.82 | 0 | 0 |
| 1,345 | ゆな (Yuna) | 4:44.91 | 0 | 0 |
| 1,346 | Shifted | 4:44.92 | 0 | 0 |
| 1,347 | CaptainLouie | 4:45.00 | 0 | 0 |
| 1,347 | Neoblastz | 4:45.00 | 0 | 0 |
| 1,349 | Stellarynn | 4:45.16 | 0 | 0 |
| 1,350 | HeptaWnWn | 4:45.23 | 0 | 0 |
| 1,351 | Minefreak6633 | 4:45.31 | 0 | 0 |
| 1,351 | Razgriz413 | 4:45.31 | 0 | 0 |
| 1,353 | Redrain100 | 4:45.32 | 0 | 0 |
| 1,354 | Lancer | 4:45.34 | 0 | 0 |
| 1,355 | gachi♂CULTIST | 4:45.42 | 0 | 0 |
| 1,356 | Archu | 4:45.43 | 0 | 0 |
| 1,357 | Awmax | 4:45.44 | 0 | 0 |
| 1,358 | Numbfeet | 4:45.69 | 0 | 0 |
| 1,359 | Speeider | 4:45.74 | 0 | 0 |
| 1,360 | Mambo | 4:45.86 | 0 | 0 |
| 1,361 | MI02 | 4:45.88 | 0 | 0 |
| 1,362 | accident prone | 4:45.92 | 0 | 0 |
| 1,363 | Pasimero | 4:45.97 | 0 | 0 |
| 1,363 | Kerm | 4:45.97 | 0 | 0 |
| 1,365 | General Specific | 4:46.09 | 0 | 0 |
| 1,366 | Deco the Artist | 4:46.12 | 0 | 0 |
| 1,367 | Gemis037 | 4:46.14 | 0 | 0 |
| 1,368 | Fon Jellman | 4:46.16 | 0 | 0 |
| 1,369 | Naughty_One | 4:46.17 | 0 | 0 |
| 1,370 | FraZer | 4:46.24 | 0 | 0 |
| 1,371 | s00 | 4:46.26 | 0 | 0 |
| 1,372 | Symon | 4:46.29 | 0 | 0 |
| 1,372 | MoonLight | 4:46.29 | 0 | 0 |
| 1,374 | DODGER MDXC | 4:46.33 | 0 | 0 |
| 1,375 | Jester Thomas | 4:46.38 | 0 | 0 |
| 1,376 | Ray | 4:46.44 | 0 | 0 |
| 1,377 | キング Raff 様 | 4:46.52 | 0 | 0 |
| 1,377 | GhostFireGod | 4:46.52 | 0 | 0 |
| 1,379 | Alexkurts | 4:46.53 | 0 | 0 |
| 1,380 | Nuigurumi | 4:46.59 | 0 | 0 |
| 1,381 | OmenzHD | 4:46.85 | 0 | 0 |
| 1,382 | SmokeScreen99 | 4:46.87 | 0 | 0 |
| 1,383 | Xanday | 4:46.88 | 0 | 0 |
| 1,384 | Nadsat | 4:46.91 | 0 | 0 |
| 1,385 | KABOOSE05 | 4:46.98 | 0 | 0 |
| 1,386 | BluApostrophe | 4:47.02 | 0 | 0 |
| 1,387 | LissomChunk | 4:47.03 | 0 | 0 |
| 1,388 | lolpokey | 4:47.07 | 0 | 0 |
| 1,389 | Locura | 4:47.22 | 0 | 0 |
| 1,390 | Verdor | 4:47.25 | 0 | 0 |
| 1,390 | Ithan | 4:47.25 | 0 | 0 |
| 1,392 | anon.v3 | 4:47.35 | 0 | 0 |
| 1,393 | Aladin | 4:47.37 | 0 | 0 |
| 1,394 | soal5367 | 4:47.54 | 0 | 0 |
| 1,395 | Well Shit | 4:47.58 | 0 | 0 |
| 1,396 | Phil | 4:47.59 | 0 | 0 |
| 1,397 | Weegee | 4:47.63 | 0 | 0 |
| 1,398 | Jeebus | 4:47.70 | 0 | 0 |
| 1,399 | BerriesAndCream | 4:47.72 | 0 | 0 |
| 1,400 | O' The Iron E | 4:47.76 | 0 | 0 |
| 1,400 | SGiB2001 | 4:47.76 | 0 | 0 |
| 1,402 | SHUPINKLES | 4:47.78 | 0 | 0 |
| 1,403 | RocketLauncherMan | 4:47.86 | 0 | 0 |
| 1,404 | white_saberwolf | 4:48.02 | 0 | 0 |
| 1,405 | Armesio | 4:48.08 | 0 | 0 |
| 1,406 | Agent Starlight | 4:48.14 | 0 | 0 |
| 1,407 | Shjohn | 4:48.19 | 0 | 0 |
| 1,408 | -_Nero_- | 4:48.23 | 0 | 0 |
| 1,409 | SaxyBoi | 4:48.28 | 0 | 0 |
| 1,409 | Celnius | 4:48.28 | 0 | 0 |
| 1,411 | LoopMix | 4:48.33 | 0 | 0 |
| 1,412 | Tamer | 4:48.35 | 0 | 0 |
| 1,413 | OnyxBlad3 | 4:48.37 | 0 | 0 |
| 1,414 | Valankor | 4:48.43 | 0 | 0 |
| 1,415 | The Stig | 4:48.52 | 0 | 0 |
| 1,416 | UnhelpfullyLazy | 4:48.56 | 0 | 0 |
| 1,417 | rezzonating | 4:48.58 | 0 | 0 |
| 1,418 | Viking_king | 4:48.63 | 0 | 0 |
| 1,419 | ThanksForNothing | 4:48.64 | 0 | 0 |
| 1,420 | dragzone | 4:48.67 | 0 | 0 |
| 1,421 | WIIZZIE | 4:48.94 | 0 | 0 |
| 1,422 | Jukey J | 4:48.99 | 0 | 0 |
| 1,423 | Raven | 4:49.07 | 0 | 0 |
| 1,423 | Axoloton | 4:49.07 | 0 | 0 |
| 1,425 | PartTimeCanadian | 4:49.15 | 0 | 0 |
| 1,425 | WTFrogs | 4:49.15 | 0 | 0 |
| 1,427 | Stuff | 4:49.18 | 0 | 0 |
| 1,428 | Nu_case | 4:49.24 | 0 | 0 |
| 1,429 | Chase Me | 4:49.31 | 0 | 0 |
| 1,430 | 1st RiiKiTV | 4:49.34 | 0 | 0 |
| 1,431 | O_O | 4:49.36 | 0 | 0 |
| 1,432 | Half | 4:49.40 | 0 | 0 |
| 1,433 | Pachas | 4:49.64 | 0 | 0 |
| 1,434 | Cynic | 4:49.70 | 0 | 0 |
| 1,435 | Lud | Forest | 4:49.76 | 0 | 0 |
| 1,436 | Lizz #abgeraged | 4:49.84 | 0 | 0 |
| 1,437 | T H O N K | 4:49.91 | 0 | 0 |
| 1,438 | Mysterious | 4:50.03 | 0 | 0 |
| 1,439 | rocmanx654 | 4:50.06 | 0 | 0 |
| 1,440 | Aero 🌐 | 4:50.09 | 0 | 0 |
| 1,441 | Chrisjoker12 | 4:50.15 | 0 | 0 |
| 1,442 | decom70 | 4:50.19 | 0 | 0 |
| 1,443 | Traetors | 4:50.26 | 0 | 0 |
| 1,444 | bASSyxa | 4:50.34 | 0 | 0 |
| 1,445 | Nisesh | 4:50.51 | 0 | 0 |
| 1,446 | Dacove | 4:50.60 | 0 | 0 |
| 1,447 | Erebus | 4:50.63 | 0 | 0 |
| 1,448 | Skransow | 4:50.71 | 0 | 0 |
| 1,449 | Jayturbo8510 | 4:50.96 | 0 | 0 |
| 1,450 | TM Chevalier VT | 4:51.02 | 0 | 0 |
| 1,451 | MFG38 | 4:51.07 | 0 | 0 |
| 1,451 | BudaChow | 4:51.07 | 0 | 0 |
| 1,453 | doordragon | 4:51.10 | 0 | 0 |
| 1,454 | MRfester21 | 4:51.15 | 0 | 0 |
| 1,455 | sad soft goth | 4:51.20 | 0 | 0 |
| 1,456 | Cass* | 4:51.21 | 0 | 0 |
| 1,456 | crimes.against.art | 4:51.21 | 0 | 0 |
| 1,458 | Renota | 4:51.33 | 0 | 0 |
| 1,459 | Novabomb | 4:51.37 | 0 | 0 |
| 1,460 | TitanSpider70 | 4:51.38 | 0 | 0 |
| 1,461 | Inzarin | 4:51.39 | 0 | 0 |
| 1,462 | Onur | 4:51.43 | 0 | 0 |
| 1,463 | Mr.tomate :D | 4:51.57 | 0 | 0 |
| 1,464 | 문경왕개미 | 4:51.60 | 0 | 0 |
| 1,464 | ecks | 4:51.60 | 0 | 0 |
| 1,466 | Ronald | 4:51.61 | 0 | 0 |
| 1,467 | Nadoc | 4:51.76 | 0 | 0 |
| 1,468 | Izaya_ | 4:51.82 | 0 | 0 |
| 1,469 | Meldiron | 4:51.87 | 0 | 0 |
| 1,470 | Ryn | 4:51.92 | 0 | 0 |
| 1,471 | TheRealFrosti | 4:52.03 | 0 | 0 |
| 1,472 | Whisky_Mike | 4:52.07 | 0 | 0 |
| 1,473 | SoulsCommand | 4:52.09 | 0 | 0 |
| 1,474 | Naftal | 4:52.11 | 0 | 0 |
| 1,475 | ReverseUno | 4:52.16 | 0 | 0 |
| 1,476 | PantoGoose | 4:52.25 | 0 | 0 |
| 1,477 | sneulv2 | 4:52.28 | 0 | 0 |
| 1,478 | Mage Vivian the Matriarch | 4:52.31 | 0 | 0 |
| 1,479 | Makoto from persona 5 (real) | 4:52.43 | 0 | 0 |
| 1,480 | Spotfire | 4:52.54 | 0 | 0 |
| 1,481 | Apollo | 4:52.58 | 0 | 0 |
| 1,482 | majuga1715 | 4:52.61 | 0 | 0 |
| 1,483 | Melvin Kelvin | 4:52.63 | 0 | 0 |
| 1,484 | Wddysr | 4:52.65 | 0 | 0 |
| 1,484 | Not without my cans! | 4:52.65 | 0 | 0 |
| 1,486 | Fromage | 4:52.80 | 0 | 0 |
| 1,487 | 76561198295712869 | 4:52.86 | 0 | 0 |
| 1,488 | Louis Thau | 4:52.87 | 0 | 0 |
| 1,489 | MrUnbecoming | 4:52.88 | 0 | 0 |
| 1,490 | Br0TherOfW@r [ PT ] | 4:52.89 | 0 | 0 |
| 1,491 | Sayukki | 4:53.15 | 0 | 0 |
| 1,492 | kıwı | 4:53.17 | 0 | 0 |
| 1,493 | Gaaratoncul (Will) | 4:53.20 | 0 | 0 |
| 1,494 | Jack the Druid | 4:53.23 | 0 | 0 |
| 1,495 | HaiFischBanane | 4:53.31 | 0 | 0 |
| 1,496 | HOSANNA | 4:53.48 | 0 | 0 |
| 1,497 | Petřík | 4:53.51 | 0 | 0 |
| 1,498 | Zinja | 4:53.57 | 0 | 0 |
| 1,499 | D-Z-U-E-T | 4:53.67 | 0 | 0 |
| 1,500 | Pepper, Belle M.D. | 4:53.81 | 0 | 0 |
| 1,501 | ReadWriteError | 4:53.94 | 0 | 0 |
| 1,502 | Fucking Salad | 4:54.01 | 0 | 0 |
| 1,503 | Hamster | 4:54.03 | 0 | 0 |
| 1,503 | Ammvnition | 4:54.03 | 0 | 0 |
| 1,505 | strange fox | 4:54.08 | 0 | 0 |
| 1,506 | Bullet074 | 4:54.27 | 0 | 0 |
| 1,507 | ShadowS56 | 4:54.28 | 0 | 0 |
| 1,508 | James "Papa Het" Hetfield | 4:54.34 | 0 | 0 |
| 1,509 | clou | 4:54.49 | 0 | 0 |
| 1,510 | Juicy | 4:54.59 | 0 | 0 |
| 1,511 | Shay | 4:54.65 | 0 | 0 |
| 1,512 | J S t y I e | 4:54.86 | 0 | 0 |
| 1,513 | Lightshift | 4:54.96 | 0 | 0 |
| 1,513 | strawberry | 4:54.96 | 0 | 0 |
| 1,515 | kuzii | 4:54.97 | 0 | 0 |
| 1,516 | Toby | 4:55.01 | 0 | 0 |
| 1,517 | morgansinsidestory | 4:55.06 | 0 | 0 |
| 1,518 | ChknNuggetGod | 4:55.12 | 0 | 0 |
| 1,519 | DioDio | 4:55.15 | 0 | 0 |
| 1,520 | HYBRiD | 4:55.28 | 0 | 0 |
| 1,521 | Ninja Squirel | 4:55.31 | 0 | 0 |
| 1,522 | Nice Nature | 4:55.33 | 0 | 0 |
| 1,523 | DarthTaco | 4:55.38 | 0 | 0 |
| 1,524 | A57:R-ID | 4:55.46 | 0 | 0 |
| 1,525 | Hλ2αrΔ | 4:55.62 | 0 | 0 |
| 1,526 | ShotgunSalad | 4:55.63 | 0 | 0 |
| 1,527 | Rybot | 4:55.78 | 0 | 0 |
| 1,528 | CrossRoads | 4:55.79 | 0 | 0 |
| 1,529 | marrowick | 4:56.00 | 0 | 0 |
| 1,530 | SilverFayte | 4:56.28 | 0 | 0 |
| 1,531 | Regera | 4:56.30 | 0 | 0 |
| 1,532 | Rush | 4:56.38 | 0 | 0 |
| 1,533 | Brendonian | 4:56.59 | 0 | 0 |
| 1,534 | GoodVibes | 4:56.77 | 0 | 0 |
| 1,535 | kieralectra | 4:56.89 | 0 | 0 |
| 1,536 | MusicPilot n.5 | 4:56.99 | 0 | 0 |
| 1,537 | Kleiner Lubittski | 4:57.05 | 0 | 0 |
| 1,538 | Carter | 4:57.09 | 0 | 0 |
| 1,539 | Dejesho | 4:57.13 | 0 | 0 |
| 1,540 | Psychoblade[187] | 4:57.19 | 0 | 0 |
| 1,541 | baybapbob | 4:57.24 | 0 | 0 |
| 1,542 | Gary Smith | 4:57.45 | 0 | 0 |
| 1,543 | timhufflepuff | 4:57.49 | 0 | 0 |
| 1,544 | Rusty Shackleford | 4:57.58 | 0 | 0 |
| 1,545 | SirDeyong | 4:57.62 | 0 | 0 |
| 1,546 | Simer_Soul | 4:57.68 | 0 | 0 |
| 1,547 | a beaver | 4:57.91 | 0 | 0 |
| 1,548 | Wolffie | 4:57.93 | 0 | 0 |
| 1,549 | Mr. Smith | 4:57.96 | 0 | 0 |
| 1,550 | nightclubpositive | 4:58.00 | 0 | 0 |
| 1,551 | Matthew Losion | 4:58.04 | 0 | 0 |
| 1,552 | Spartan Red Sand | 4:58.23 | 0 | 0 |
| 1,553 | Deviltunikablume1987 | 4:58.27 | 0 | 0 |
| 1,554 | sendthefish | 4:58.34 | 0 | 0 |
| 1,555 | Janus | 4:58.50 | 0 | 0 |
| 1,556 | Misplaymaker | 4:58.58 | 0 | 0 |
| 1,557 | Saphira Kai | 4:58.63 | 0 | 0 |
| 1,558 | Cauliflower | 4:58.67 | 0 | 0 |
| 1,559 | Detective Man | 4:58.88 | 0 | 0 |
| 1,560 | Malum Umbra | 4:59.05 | 0 | 0 |
| 1,561 | stachii | 4:59.14 | 0 | 0 |
| 1,562 | Slaerd | 4:59.26 | 0 | 0 |
| 1,563 | MrLummo | 4:59.28 | 0 | 0 |
| 1,564 | JaNanna | 4:59.29 | 0 | 0 |
| 1,565 | Kunya The Scoot | 4:59.40 | 0 | 0 |
| 1,566 | Лолисичка | 4:59.54 | 0 | 0 |
| 1,567 | Fraulk | 4:59.61 | 0 | 0 |
| 1,568 | Hypertacos | 4:59.71 | 0 | 0 |
| 1,569 | Microkiller | 4:59.73 | 0 | 0 |
| 1,570 | Lord Badong | 4:59.75 | 0 | 0 |
| 1,571 | Snarf | 4:59.77 | 0 | 0 |
| 1,572 | Dazzle10 | 4:59.88 | 0 | 0 |
| 1,573 | Amored Dragon | 4:59.90 | 0 | 0 |
| 1,574 | BYTC | 4:59.98 | 0 | 0 |
| 1,575 | Dango | 5:00.18 | 0 | 0 |
| 1,575 | koralunderline | 5:00.18 | 0 | 0 |
| 1,577 | Br'er Lappin | 5:00.19 | 0 | 0 |
| 1,578 | singingsteel | 5:00.22 | 0 | 0 |
| 1,579 | Julia | 5:00.25 | 0 | 0 |
| 1,580 | Mr. Pooch | 5:00.26 | 0 | 0 |
| 1,581 | Gendrome | 5:00.28 | 0 | 0 |
| 1,582 | eik the cat | 5:00.31 | 0 | 0 |
| 1,583 | enerszon | 5:00.55 | 0 | 0 |
| 1,584 | Wayne | 5:00.60 | 0 | 0 |
| 1,584 | FrostCorp | 5:00.60 | 0 | 0 |
| 1,586 | Rhetorical Question | 5:00.83 | 0 | 0 |
| 1,587 | Feed The Fishes | 5:00.92 | 0 | 0 |
| 1,588 | ℛ𝓊𝓃𝑒 | 5:00.96 | 0 | 0 |
| 1,589 | [d]raex | 5:00.99 | 0 | 0 |
| 1,590 | ace4653 | 5:01.02 | 0 | 0 |
| 1,591 | Tried ur Besto | 5:01.14 | 0 | 0 |
| 1,592 | Teh_Baka|TTV | 5:01.20 | 0 | 0 |
| 1,593 | Eriol | 5:01.25 | 0 | 0 |
| 1,594 | bodyshotspecialist | 5:01.27 | 0 | 0 |
| 1,595 | Canine Dragon | 5:01.33 | 0 | 0 |
| 1,596 | Meridius_IX / Lucas | 5:01.40 | 0 | 0 |
| 1,597 | [JG508] Arsène Lupin III | 5:01.65 | 0 | 0 |
| 1,598 | Macblur2 | 5:01.74 | 0 | 0 |
| 1,599 | Ben | 5:01.84 | 0 | 0 |
| 1,600 | fanehernandez53 | 5:01.85 | 0 | 0 |
| 1,601 | Logo$(ru) | 5:01.89 | 0 | 0 |
| 1,602 | Arthagon | 5:01.96 | 0 | 0 |
| 1,603 | Dark Afton | 5:02.22 | 0 | 0 |
| 1,604 | VectorBot | 5:02.37 | 0 | 0 |
| 1,605 | Jepplez | 5:02.39 | 0 | 0 |
| 1,606 | Canopus Cat | 5:02.71 | 0 | 0 |
| 1,607 | pepe yuno nakano | 5:02.74 | 0 | 0 |
| 1,608 | M E L L O W | 5:02.75 | 0 | 0 |
| 1,609 | Deyla | 5:02.80 | 0 | 0 |
| 1,610 | Gingerbreadman | 5:02.93 | 0 | 0 |
| 1,611 | CocoaSwirledBunTTV | 5:03.00 | 0 | 0 |
| 1,612 | joltz | 5:03.08 | 0 | 0 |
| 1,613 | Red Sun | 5:03.10 | 0 | 0 |
| 1,614 | Commander Crack | 5:03.23 | 0 | 0 |
| 1,615 | 小猫莉莉Kitten Lily | 5:03.33 | 0 | 0 |
| 1,616 | Charmyte | 5:03.40 | 0 | 0 |
| 1,617 | oskolok | 5:03.46 | 0 | 0 |
| 1,618 | BondageIsArt | 5:03.54 | 0 | 0 |
| 1,619 | Van Saponatheim | 5:03.60 | 0 | 0 |
| 1,620 | solae | 5:03.64 | 0 | 0 |
| 1,621 | Kaitana | 5:03.73 | 0 | 0 |
| 1,622 | Loune Fire | 5:03.78 | 0 | 0 |
| 1,623 | thebigbluesky | 5:04.05 | 0 | 0 |
| 1,624 | Soulguard | 5:04.06 | 0 | 0 |
| 1,625 | KaiserDragun | 5:04.18 | 0 | 0 |
| 1,626 | Anguish | 5:04.34 | 0 | 0 |
| 1,627 | The Salt Is REAL | 5:04.49 | 0 | 0 |
| 1,628 | Sxolian | 5:04.55 | 0 | 0 |
| 1,628 | garg | 5:04.55 | 0 | 0 |
| 1,630 | FlyWheel | 5:04.59 | 0 | 0 |
| 1,631 | Droelee | 5:04.67 | 0 | 0 |
| 1,632 | SmittenPuppet | 5:04.77 | 0 | 0 |
| 1,633 | Medal | 5:04.80 | 0 | 0 |
| 1,634 | blamecoopa | 5:04.81 | 0 | 0 |
| 1,634 | Lokin | 5:04.81 | 0 | 0 |
| 1,636 | Vypr | 5:04.83 | 0 | 0 |
| 1,637 | Traxun | 5:04.91 | 0 | 0 |
| 1,638 | MuckPie | 5:04.93 | 0 | 0 |
| 1,639 | Calcarious | 5:05.03 | 0 | 0 |
| 1,640 | Todd Bonzalez | 5:05.14 | 0 | 0 |
| 1,641 | Not a Clever Pony | 5:05.29 | 0 | 0 |
| 1,642 | [Shin0bu] | 5:05.33 | 0 | 0 |
| 1,643 | Kriscos | 5:05.53 | 0 | 0 |
| 1,644 | lucas88 | 5:05.59 | 0 | 0 |
| 1,645 | Poofoo | 5:05.66 | 0 | 0 |
| 1,646 | minionmom82 | 5:05.72 | 0 | 0 |
| 1,647 | Rodum | 5:05.79 | 0 | 0 |
| 1,648 | ERIC STRIKE INCOMING | 5:05.87 | 0 | 0 |
| 1,649 | // Vaffe | 5:05.90 | 0 | 0 |
| 1,650 | Beastrolami | 5:05.94 | 0 | 0 |
| 1,650 | CinnamonBunBun | 5:05.94 | 0 | 0 |
| 1,652 | 1996 Honda Civic EX | 5:06.20 | 0 | 0 |
| 1,653 | Lil O.D. | 5:06.29 | 0 | 0 |
| 1,654 | TheAechBomb | 5:06.31 | 0 | 0 |
| 1,655 | Kibby | 5:06.37 | 0 | 0 |
| 1,656 | Fuzz | 5:06.42 | 0 | 0 |
| 1,657 | Marcipan | 5:06.46 | 0 | 0 |
| 1,657 | Super Small Man | 5:06.46 | 0 | 0 |
| 1,657 | Mango | 5:06.46 | 0 | 0 |
| 1,660 | prodbyhuff | 5:06.51 | 0 | 0 |
| 1,661 | smashingdrop17 | 5:06.54 | 0 | 0 |
| 1,662 | Galactica Racer | 5:06.59 | 0 | 0 |
| 1,663 | Pink Naruto | 5:06.67 | 0 | 0 |
| 1,663 | Reisender | 5:06.67 | 0 | 0 |
| 1,665 | Pingu | 5:06.68 | 0 | 0 |
| 1,666 | Azy | 5:06.76 | 0 | 0 |
| 1,667 | ★Doka-SP★ | 5:06.86 | 0 | 0 |
| 1,668 | Bani | 5:07.00 | 0 | 0 |
| 1,669 | Astrodynamics | 5:07.01 | 0 | 0 |
| 1,670 | Billy Bat | 5:07.12 | 0 | 0 |
| 1,671 | Bierb | 5:07.14 | 0 | 0 |
| 1,672 | SteelDrake | 5:07.15 | 0 | 0 |
| 1,673 | BEZDARZ | 5:07.23 | 0 | 0 |
| 1,674 | Allandrow | 5:07.31 | 0 | 0 |
| 1,675 | Ulfhednar | 5:07.36 | 0 | 0 |
| 1,676 | diegolax | 5:07.40 | 0 | 0 |
| 1,677 | Teku | 5:07.41 | 0 | 0 |
| 1,678 | redcrowx | 5:07.61 | 0 | 0 |
| 1,679 | Foul Energy | 5:07.68 | 0 | 0 |
| 1,680 | CoolsTusk | 5:07.73 | 0 | 0 |
| 1,681 | Muse | 5:07.78 | 0 | 0 |
| 1,682 | Tuli | 5:07.79 | 0 | 0 |
| 1,683 | 76561199053591580 | 5:07.86 | 0 | 0 |
| 1,684 | Nicolaj | 5:08.03 | 0 | 0 |
| 1,685 | Spark79 | 5:08.07 | 0 | 0 |
| 1,686 | Its_Just_Dave | 5:08.08 | 0 | 0 |
| 1,687 | Vinnie Scumbolli | 5:08.39 | 0 | 0 |
| 1,688 | TS015 | 5:08.68 | 0 | 0 |
| 1,689 | Ventus | 5:08.87 | 0 | 0 |
| 1,690 | Plappy | 5:08.95 | 0 | 0 |
| 1,691 | StarMiku039 | 5:08.97 | 0 | 0 |
| 1,692 | LilRainbow | 5:09.08 | 0 | 0 |
| 1,693 | shi+0rty | 5:09.09 | 0 | 0 |
| 1,694 | Apoctix | 5:09.15 | 0 | 0 |
| 1,695 | Relume | 5:09.26 | 0 | 0 |
| 1,696 | Giant From The East | 5:09.27 | 0 | 0 |
| 1,697 | Eshael | 5:09.29 | 0 | 0 |
| 1,698 | OilsTheBody | 5:09.45 | 0 | 0 |
| 1,699 | Anvilanche | 5:09.73 | 0 | 0 |
| 1,700 | Antler | 5:09.87 | 0 | 0 |
| 1,701 | Sartha | 5:10.02 | 0 | 0 |
| 1,701 | Remanner | 5:10.02 | 0 | 0 |
| 1,703 | Zigerion | 5:10.08 | 0 | 0 |
| 1,704 | Mammoth Gorgon | 5:10.18 | 0 | 0 |
| 1,705 | [BFAA]NiteRiderEVO | 5:10.19 | 0 | 0 |
| 1,706 | leverposteifantomet | 5:10.21 | 0 | 0 |
| 1,706 | TheTimeis538 | 5:10.21 | 0 | 0 |
| 1,708 | Swayo | 5:10.39 | 0 | 0 |
| 1,709 | dust ♥ | 5:10.54 | 0 | 0 |
| 1,710 | Pink | 5:10.76 | 0 | 0 |
| 1,711 | GamingWithColby | 5:10.84 | 0 | 0 |
| 1,712 | Ashen Marx | 5:11.09 | 0 | 0 |
| 1,713 | cskpirate | 5:11.23 | 0 | 0 |
| 1,714 | ChrisDerToaster | 5:11.26 | 0 | 0 |
| 1,715 | Lethal Recon | 5:11.55 | 0 | 0 |
| 1,716 | mordo | 5:11.72 | 0 | 0 |
| 1,717 | Dahhkick | 5:11.77 | 0 | 0 |
| 1,717 | KingOfHell | 5:11.77 | 0 | 0 |
| 1,719 | DeluxeH30 | 5:11.85 | 0 | 0 |
| 1,720 | Stikstikley | 5:11.88 | 0 | 0 |
| 1,721 | JaffaCaffa | 5:12.23 | 0 | 0 |
| 1,722 | Zero_Antlax | 5:12.49 | 0 | 0 |
| 1,723 | Captain Grayson | 5:12.53 | 0 | 0 |
| 1,724 | Alistair504 | 5:12.66 | 0 | 0 |
| 1,725 | DvN | 5:12.71 | 0 | 0 |
| 1,726 | Corvus Vagus | 5:12.92 | 0 | 0 |
| 1,727 | redtpx | 5:12.99 | 0 | 0 |
| 1,728 | Hawaiano | 5:13.11 | 0 | 0 |
| 1,729 | MystykZ | 5:13.41 | 0 | 0 |
| 1,729 | Harue Kuma | 5:13.41 | 0 | 0 |
| 1,731 | RedSpade83 | 5:13.43 | 0 | 0 |
| 1,732 | 纸飞机 | 5:13.53 | 0 | 0 |
| 1,733 | Benzor | 5:13.68 | 0 | 0 |
| 1,734 | DomNation | 5:14.14 | 0 | 0 |
| 1,735 | Pepino | 5:14.15 | 0 | 0 |
| 1,736 | Zep | 5:14.28 | 0 | 0 |
| 1,737 | bacon | 5:14.38 | 0 | 0 |
| 1,738 | NonoGhettoYouth | 5:14.43 | 0 | 0 |
| 1,739 | Atamii | 5:14.53 | 0 | 0 |
| 1,740 | Sandi_Witch | 5:14.59 | 0 | 0 |
| 1,741 | O QUEEEEEEEEEEEEEEEEE??? | 5:14.83 | 0 | 0 |
| 1,742 | De_m0 | 5:14.86 | 0 | 0 |
| 1,743 | squaredanced | 5:14.89 | 0 | 0 |
| 1,744 | CouchyMuffin | 5:15.25 | 0 | 0 |
| 1,745 | The Telecaster | 5:15.31 | 0 | 0 |
| 1,746 | jyhwk | 5:15.37 | 0 | 0 |
| 1,747 | Mr. Beefy | 5:15.46 | 0 | 0 |
| 1,748 | Utsuho 'Okuu' Reiuji | 5:15.51 | 0 | 0 |
| 1,749 | throbbing_fish | 5:15.64 | 0 | 0 |
| 1,750 | Nuclear Phoenix | 5:15.91 | 0 | 0 |
| 1,751 | Mr. Chubbz | 5:15.95 | 0 | 0 |
| 1,752 | Paddy Productions | 5:16.08 | 0 | 0 |
| 1,753 | SC000TER | 5:16.19 | 0 | 0 |
| 1,754 | Damok | 5:16.21 | 0 | 0 |
| 1,755 | Kine | 5:16.42 | 0 | 0 |
| 1,756 | Banana Pel | 5:16.54 | 0 | 0 |
| 1,757 | Mr. Sir Spaceman | 5:16.56 | 0 | 0 |
| 1,758 | Western Imperialist | 5:16.67 | 0 | 0 |
| 1,759 | Adrián | 5:16.76 | 0 | 0 |
| 1,760 | Bone Lee | 5:16.85 | 0 | 0 |
| 1,761 | Leonidus | 5:16.96 | 0 | 0 |
| 1,762 | GigaSpin | 5:17.05 | 0 | 0 |
| 1,763 | JaBBerSmack | 5:17.07 | 0 | 0 |
| 1,764 | O Rouba Canetas ˢᶜᶜᵖ | 5:17.21 | 0 | 0 |
| 1,765 | tipek360 | 5:17.22 | 0 | 0 |
| 1,766 | marius_redandblue | 5:17.38 | 0 | 0 |
| 1,767 | Renault Modus phase 2 | 5:17.41 | 0 | 0 |
| 1,768 | Sonicnine1 | 5:17.47 | 0 | 0 |
| 1,769 | RAINBOW DASH !!!!! | 5:17.56 | 0 | 0 |
| 1,770 | Fergunnar | 5:17.65 | 0 | 0 |
| 1,771 | Plewt0 | 5:17.76 | 0 | 0 |
| 1,772 | Soil | 5:17.82 | 0 | 0 |
| 1,773 | Mirianne | 5:17.83 | 0 | 0 |
| 1,774 | FrancoGaFi | 5:17.86 | 0 | 0 |
| 1,775 | Eternal | 5:17.91 | 0 | 0 |
| 1,776 | ratgirl | 5:18.37 | 0 | 0 |
| 1,776 | Avenjja | 5:18.37 | 0 | 0 |
| 1,778 | frogman51 | 5:18.39 | 0 | 0 |
| 1,779 | G_THE_P | 5:18.44 | 0 | 0 |
| 1,780 | Zeo | 5:18.47 | 0 | 0 |
| 1,781 | Xyte | 5:18.50 | 0 | 0 |
| 1,782 | DKepl | 5:18.97 | 0 | 0 |
| 1,783 | sdoyle4499 | 5:19.09 | 0 | 0 |
| 1,784 | lackieracing | 5:19.29 | 0 | 0 |
| 1,785 | sadface :( | 5:19.39 | 0 | 0 |
| 1,786 | White Grey | 5:19.49 | 0 | 0 |
| 1,787 | shady3000 | 5:19.55 | 0 | 0 |
| 1,788 | Pirate | 5:19.59 | 0 | 0 |
| 1,789 | Tom From Plants Vs. Zombies | 5:19.67 | 0 | 0 |
| 1,790 | Cuttyflame | 5:19.82 | 0 | 0 |
| 1,791 | Kiets | 5:19.88 | 0 | 0 |
| 1,792 | cheif22 | 5:20.04 | 0 | 0 |
| 1,793 | Juni | 5:20.05 | 0 | 0 |
| 1,794 | Strainer20[GER] | 5:20.11 | 0 | 0 |
| 1,795 | Bricked Up Vakama | 5:20.23 | 0 | 0 |
| 1,796 | GryphShot | 5:20.39 | 0 | 0 |
| 1,797 | Toasty534 | 5:20.41 | 0 | 0 |
| 1,798 | Sky Lord Appa | 5:20.42 | 0 | 0 |
| 1,799 | Cob₆⁶₆Kurtain | 5:20.52 | 0 | 0 |
| 1,800 | Claire Astora | 5:20.73 | 0 | 0 |
| 1,801 | Boomslang | 5:20.88 | 0 | 0 |
| 1,802 | Teuntjuhh | 5:20.94 | 0 | 0 |
| 1,803 | SuperTechDragon | 5:20.97 | 0 | 0 |
| 1,804 | NotNotPancake | 5:21.09 | 0 | 0 |
| 1,805 | Bruce | 5:21.15 | 0 | 0 |
| 1,806 | enejūto | 5:21.38 | 0 | 0 |
| 1,807 | Petitmouton... | 5:21.58 | 0 | 0 |
| 1,808 | MrAmazing79 | 5:21.78 | 0 | 0 |
| 1,809 | Sleepy | 5:21.80 | 0 | 0 |
| 1,810 | Mr_Rose | 5:21.87 | 0 | 0 |
| 1,811 | CyberStorm | 5:21.99 | 0 | 0 |
| 1,812 | eternal | 5:22.21 | 0 | 0 |
| 1,813 | < blank > | 5:22.29 | 0 | 0 |
| 1,814 | Meanguy6050 | 5:22.47 | 0 | 0 |
| 1,815 | Ion | 5:22.64 | 0 | 0 |
| 1,816 | MaruPig | 5:22.85 | 0 | 0 |
| 1,817 | Heldopsokken | 5:23.30 | 0 | 0 |
| 1,818 | RisingHERO19 | 5:23.45 | 0 | 0 |
| 1,819 | CrimsonFez | 5:23.49 | 0 | 0 |
| 1,820 | yuri gagarin's creamy interior | 5:23.60 | 0 | 0 |
| 1,821 | Spelunkadoodle | 5:23.75 | 0 | 0 |
| 1,822 | SPAS SAPPING MA SENTRY | 5:23.77 | 0 | 0 |
| 1,823 | KianNotCyan | 5:23.82 | 0 | 0 |
| 1,824 | Сосёна | 5:23.90 | 0 | 0 |
| 1,825 | A Frog Named Toad | 5:24.02 | 0 | 0 |
| 1,826 | SEVEN | 5:24.05 | 0 | 0 |
| 1,827 | Alastrion | 5:24.14 | 0 | 0 |
| 1,827 | Saujii2 | 5:24.14 | 0 | 0 |
| 1,829 | Vithor14 | 5:24.15 | 0 | 0 |
| 1,830 | Mouseochism | 5:24.20 | 0 | 0 |
| 1,831 | Thus_ | 5:24.21 | 0 | 0 |
| 1,832 | Xela | 5:24.71 | 0 | 0 |
| 1,833 | Baranagu | 5:24.83 | 0 | 0 |
| 1,834 | Indy1984 | 5:24.99 | 0 | 0 |
| 1,835 | ren | 5:25.02 | 0 | 0 |
| 1,836 | hell | 5:25.14 | 0 | 0 |
| 1,837 | ShadeSlayer24 | 5:25.30 | 0 | 0 |
| 1,838 | IsoSheepington | 5:25.38 | 0 | 0 |
| 1,839 | Knight-of-Ni | 5:25.44 | 0 | 0 |
| 1,840 | catbotz | 5:25.51 | 0 | 0 |
| 1,841 | Metastreumonic | 5:25.55 | 0 | 0 |
| 1,842 | Tibbs | 5:25.62 | 0 | 0 |
| 1,843 | Akira Furu | 5:25.99 | 0 | 0 |
| 1,844 | NewCH | 5:26.06 | 0 | 0 |
| 1,845 | conduit | 5:26.11 | 0 | 0 |
| 1,846 | Shadow_Axel | 5:26.20 | 0 | 0 |
| 1,847 | kill everyone and leave | 5:26.21 | 0 | 0 |
| 1,848 | PΙCΛPΙCΔ | 5:26.48 | 0 | 0 |
| 1,849 | ben.medlock11 | 5:26.52 | 0 | 0 |
| 1,850 | Dæynera-IX | 5:26.57 | 0 | 0 |
| 1,851 | Generic Gamer Gurl | 5:26.81 | 0 | 0 |
| 1,852 | Deegs | 5:26.84 | 0 | 0 |
| 1,853 | REHERC | 5:26.90 | 0 | 0 |
| 1,854 | Aldebaran | 5:27.02 | 0 | 0 |
| 1,855 | Bobeye | 5:27.20 | 0 | 0 |
| 1,856 | Vinter | 5:27.21 | 0 | 0 |
| 1,857 | all3adron | 5:27.43 | 0 | 0 |
| 1,858 | 2wrist | 5:27.78 | 0 | 0 |
| 1,859 | krakentoa | 5:27.81 | 0 | 0 |
| 1,860 | Silver | 5:27.93 | 0 | 0 |
| 1,861 | Chocolatine-33 | 5:28.02 | 0 | 0 |
| 1,862 | TajPilon | 5:28.05 | 0 | 0 |
| 1,863 | Fireball Jr. Numba 2 | 5:28.17 | 0 | 0 |
| 1,864 | Burden, The Red | 5:28.52 | 0 | 0 |
| 1,864 | Big Chungus2010 | 5:28.52 | 0 | 0 |
| 1,866 | Jass5991 | 5:28.69 | 0 | 0 |
| 1,867 | |SQD²| Phlewid | 5:28.78 | 0 | 0 |
| 1,868 | TkP Xmen | 5:28.96 | 0 | 0 |
| 1,869 | WindFish | 5:29.11 | 0 | 0 |
| 1,870 | Autism M5 Max | 5:29.18 | 0 | 0 |
| 1,871 | MeshuggaH | 5:29.19 | 0 | 0 |
| 1,872 | HollyPotato | 5:29.27 | 0 | 0 |
| 1,873 | Dvvaine | 5:29.52 | 0 | 0 |
| 1,874 | GodClickeR | 5:29.56 | 0 | 0 |
| 1,875 | javier48.tov | 5:29.70 | 0 | 0 |
| 1,876 | sweet like pepsi | 5:29.82 | 0 | 0 |
| 1,877 | FRΛCTURΞD SOUL | 5:30.09 | 0 | 0 |
| 1,878 | Nowan | 5:30.26 | 0 | 0 |
| 1,879 | Methler | 5:30.52 | 0 | 0 |
| 1,880 | Jeats | 5:30.55 | 0 | 0 |
| 1,881 | loki | 5:30.90 | 0 | 0 |
| 1,882 | Skrall' | 5:31.12 | 0 | 0 |
| 1,883 | Judge Dredd Begley Jr. | 5:31.14 | 0 | 0 |
| 1,884 | Jerico Venado | 5:31.18 | 0 | 0 |
| 1,885 | Eyeamgroot | 5:31.32 | 0 | 0 |
| 1,886 | ProsvetlionyMaster | 5:31.47 | 0 | 0 |
| 1,887 | in-term-ezzo | 5:31.50 | 0 | 0 |
| 1,888 | Greywolfe | 5:31.67 | 0 | 0 |
| 1,889 | Adwilkins | 5:31.81 | 0 | 0 |
| 1,890 | MR.CH33ZZY 63 | 5:32.51 | 0 | 0 |
| 1,891 | < M A T > | 5:32.69 | 0 | 0 |
| 1,892 | miro. | 5:32.73 | 0 | 0 |
| 1,893 | Shiki | 5:32.76 | 0 | 0 |
| 1,894 | 贫穷的跳蚤市场摊贩 | 5:32.97 | 0 | 0 |
| 1,895 | Jara | 5:33.04 | 0 | 0 |
| 1,896 | doogman | 5:33.13 | 0 | 0 |
| 1,897 | Uldergoff | 5:33.24 | 0 | 0 |
| 1,898 | DrearyPandas | 5:33.32 | 0 | 0 |
| 1,899 | Phazen | 5:33.34 | 0 | 0 |
| 1,900 | TheDeco | 5:33.52 | 0 | 0 |
| 1,900 | Kowsky | 5:33.52 | 0 | 0 |
| 1,902 | Drashneer | 5:33.55 | 0 | 0 |
| 1,903 | Jupiter One | 5:33.58 | 0 | 0 |
| 1,904 | IBM | 5:33.68 | 0 | 0 |
| 1,905 | Invictus | 5:33.76 | 0 | 0 |
| 1,906 | Talone | 5:34.06 | 0 | 0 |
| 1,907 | NeonVixie | 5:34.21 | 0 | 0 |
| 1,908 | Ktee | 5:34.42 | 0 | 0 |
| 1,909 | Vladify | 5:34.72 | 0 | 0 |
| 1,910 | Gooby plis | 5:34.75 | 0 | 0 |
| 1,911 | Liningcorn9 | 5:34.96 | 0 | 0 |
| 1,912 | Flarble | 5:35.21 | 0 | 0 |
| 1,913 | dimentoes | 5:35.27 | 0 | 0 |
| 1,914 | Holly | 5:35.54 | 0 | 0 |
| 1,915 | Soul | 5:35.57 | 0 | 0 |
| 1,916 | OGJOHNNYBOBSON | 5:35.72 | 0 | 0 |
| 1,917 | Grubby Fingers | 5:35.83 | 0 | 0 |
| 1,918 | ♥Ma-Kyutie♥ | 5:35.90 | 0 | 0 |
| 1,919 | AlwaysTalkingAboutMyDog | 5:35.92 | 0 | 0 |
| 1,920 | FlawLizArt | 5:35.93 | 0 | 0 |
| 1,921 | alesuot | 5:36.11 | 0 | 0 |
| 1,922 | Chompa | 5:36.32 | 0 | 0 |
| 1,923 | Chosnuk | 5:36.79 | 0 | 0 |
| 1,924 | orbie | 5:37.06 | 0 | 0 |
| 1,925 | |D.H.E| Azzurol | 5:37.47 | 0 | 0 |
| 1,926 | Vencer | 5:37.66 | 0 | 0 |
| 1,927 | Tom Bergeron | 5:37.67 | 0 | 0 |
| 1,928 | LemurLady12 | 5:37.80 | 0 | 0 |
| 1,929 | *notices ur dreams* | 5:38.09 | 0 | 0 |
| 1,930 | Clem | 5:38.22 | 0 | 0 |
| 1,931 | Rat on a Computer | 5:39.08 | 0 | 0 |
| 1,932 | BumbleFunkMcGee | 5:39.41 | 0 | 0 |
| 1,933 | NATINAUM | 5:39.65 | 0 | 0 |
| 1,933 | AmberNik | 5:39.65 | 0 | 0 |
| 1,935 | xxhazfunxx | 5:39.69 | 0 | 0 |
| 1,936 | TFProtoform157 | 5:39.86 | 0 | 0 |
| 1,937 | hAwG | 5:40.15 | 0 | 0 |
| 1,938 | TheSuperSaiyanRose | 5:40.33 | 0 | 0 |
| 1,939 | Koussevitzky | 5:40.42 | 0 | 0 |
| 1,940 | Protein | 5:40.45 | 0 | 0 |
| 1,941 | Евгений Пригожин | 5:41.01 | 0 | 0 |
| 1,942 | LunarRay | 5:41.06 | 0 | 0 |
| 1,943 | TNTDragons | 5:41.12 | 0 | 0 |
| 1,944 | XeroxCopy | 5:41.64 | 0 | 0 |
| 1,945 | Pandonian | 5:41.97 | 0 | 0 |
| 1,946 | Seeds | 5:41.98 | 0 | 0 |
| 1,947 | javi | 5:42.93 | 0 | 0 |
| 1,948 | ***** | 5:42.96 | 0 | 0 |
| 1,949 | Shi_doh | 5:43.25 | 0 | 0 |
| 1,950 | ✱ Ale | 5:43.39 | 0 | 0 |
| 1,951 | Lampshaede | 5:43.76 | 0 | 0 |
| 1,952 | VexA_iO | 5:44.06 | 0 | 0 |
| 1,953 | Drago | 5:44.38 | 0 | 0 |
| 1,954 | Zerafh | 5:44.62 | 0 | 0 |
| 1,955 | Carrott | 5:44.87 | 0 | 0 |
| 1,956 | Emma | 5:45.08 | 0 | 0 |
| 1,957 | TK | 5:45.17 | 0 | 0 |
| 1,958 | Hakaishin 暁 | 5:46.10 | 0 | 0 |
| 1,959 | Sateez | 5:46.78 | 0 | 0 |
| 1,960 | Jumpmatha | 5:47.31 | 0 | 0 |
| 1,961 | Dusty | 5:47.92 | 0 | 0 |
| 1,962 | Aggron | 5:48.40 | 0 | 0 |
| 1,963 | Hexapotato | 5:48.66 | 0 | 0 |
| 1,964 | g●Sleep | 5:49.06 | 0 | 0 |
| 1,965 | Christyler | 5:50.08 | 0 | 0 |
| 1,966 | Kilo | 5:51.14 | 0 | 0 |
| 1,967 | BigEnnn | 5:52.00 | 0 | 0 |
| 1,968 | Loys Nuva | 5:52.50 | 0 | 0 |
| 1,969 | Savitar432[PL] | 5:52.79 | 0 | 0 |
| 1,970 | Jake | 5:53.37 | 0 | 0 |
| 1,971 | SmolSucc | 5:53.89 | 0 | 0 |
| 1,972 | Penitent Tangent | 5:54.11 | 0 | 0 |
| 1,973 | BolSalvaje | 5:54.80 | 0 | 0 |
| 1,974 | Felixcalm | 5:55.90 | 0 | 0 |
| 1,975 | Kamen Shrimper | 5:56.14 | 0 | 0 |
| 1,976 | hoppersthree | 5:56.32 | 0 | 0 |
| 1,977 | Glitchy | 5:56.34 | 0 | 0 |
| 1,978 | Kuma Matata | 5:56.86 | 0 | 0 |
| 1,979 | TactMagnum | 5:57.66 | 0 | 0 |
| 1,980 | DerGoldBärWerner | 5:57.77 | 0 | 0 |
| 1,981 | Jesse | 5:57.91 | 0 | 0 |
| 1,982 | Creepersrock24Gaming | 5:58.28 | 0 | 0 |
| 1,983 | kbbetournay | 5:58.33 | 0 | 0 |
| 1,984 | Pinsel | 5:58.57 | 0 | 0 |
| 1,985 | MrJace | 5:59.16 | 0 | 0 |
| 1,986 | Schmuggums McGee | 6:00.02 | 0 | 0 |
| 1,987 | ZeroSavesalot | 6:00.41 | 0 | 0 |
| 1,988 | Khornefl4ke5 | 6:00.78 | 0 | 0 |
| 1,989 | beanii | 6:00.96 | 0 | 0 |
| 1,990 | dhampirassassin | 6:01.28 | 0 | 0 |
| 1,991 | Zen Fetcher | 6:01.70 | 0 | 0 |
| 1,992 | Muhammad Oki | 6:01.76 | 0 | 0 |
| 1,993 | SushiBomber | 6:02.27 | 0 | 0 |
| 1,993 | Spiral Unstable | 6:02.27 | 0 | 0 |
| 1,995 | PIRATE | 6:03.81 | 0 | 0 |
| 1,996 | Confetti | 6:04.28 | 0 | 0 |
| 1,997 | Puff | 6:05.53 | 0 | 0 |
| 1,998 | Ape Tea | 6:05.74 | 0 | 0 |
| 1,998 | TORTUGA | 6:05.74 | 0 | 0 |
| 2,000 | autistic pringle | 6:05.77 | 0 | 0 |
| 2,001 | Denigmas | 6:06.20 | 0 | 0 |
| 2,002 | SynthWaveeon | 6:06.62 | 0 | 0 |
| 2,003 | Delir1o | 6:07.91 | 0 | 0 |
| 2,004 | Looker | 6:08.18 | 0 | 0 |
| 2,005 | Lena_thePilot | 6:09.10 | 0 | 0 |
| 2,006 | SyfonMK | 6:09.34 | 0 | 0 |
| 2,007 | leon | 6:09.44 | 0 | 0 |
| 2,008 | 🄿🅄🄲🄺 | 6:09.91 | 0 | 0 |
| 2,009 | Lildyingpotato | 6:10.87 | 0 | 0 |
| 2,010 | Sexecutioner | 6:11.39 | 0 | 0 |
| 2,011 | gamegame | 6:11.53 | 0 | 0 |
| 2,012 | Eyes | 6:11.81 | 0 | 0 |
| 2,013 | martonio | 6:13.16 | 0 | 0 |
| 2,014 | Silvertail | 6:13.40 | 0 | 0 |
| 2,015 | King | 6:14.00 | 0 | 0 |
| 2,016 | switcheHHH | 6:14.43 | 0 | 0 |
| 2,017 | LuckyFoot | 6:15.44 | 0 | 0 |
| 2,018 | Enthrall Decree | 6:17.27 | 0 | 0 |
| 2,019 | Lokorit | 6:17.55 | 0 | 0 |
| 2,020 | Reus | 6:18.51 | 0 | 0 |
| 2,021 | FERNDISCO | 6:20.17 | 0 | 0 |
| 2,022 | VinoStained | 6:20.67 | 0 | 0 |
| 2,023 | Dairla | 6:22.94 | 0 | 0 |
| 2,024 | LORD SPOOKLEKINS | 6:24.13 | 0 | 0 |
| 2,025 | Sylvren.sys | 6:24.38 | 0 | 0 |
| 2,026 | Deathghost [FR] | 6:24.57 | 0 | 0 |
| 2,027 | LlamaOP | 6:24.61 | 0 | 0 |
| 2,028 | Ication | 6:25.28 | 0 | 0 |
| 2,029 | Redx | 6:25.80 | 0 | 0 |
| 2,030 | 76561198836144536 | 6:26.55 | 0 | 0 |
| 2,031 | Polar | 6:26.75 | 0 | 0 |
| 2,032 | Stealthxs | 6:26.94 | 0 | 0 |
| 2,033 | Freddy Fazbear | 6:27.92 | 0 | 0 |
| 2,034 | alvar902 | 6:27.98 | 0 | 0 |
| 2,035 | Cynix | 6:29.17 | 0 | 0 |
| 2,036 | Arkainik | 6:29.61 | 0 | 0 |
| 2,037 | C011iD3R | 6:30.60 | 0 | 0 |
| 2,038 | pfeilthree | 6:31.24 | 0 | 0 |
| 2,039 | The Audacity | 6:31.50 | 0 | 0 |
| 2,040 | Time Vault | 6:31.89 | 0 | 0 |
| 2,041 | Shakawah | 6:33.15 | 0 | 0 |
| 2,042 | mirroryubel | 6:34.09 | 0 | 0 |
| 2,043 | ShibeWolf | 6:36.00 | 0 | 0 |
| 2,044 | Syta | 6:36.38 | 0 | 0 |
| 2,045 | H A L C Y O N | 6:36.43 | 0 | 0 |
| 2,046 | DraknSkul | 6:38.46 | 0 | 0 |
| 2,047 | bibendum | 6:39.44 | 0 | 0 |
| 2,048 | Jacqyl Frost 🩵 小百合の | 6:42.67 | 0 | 0 |
| 2,049 | Ravencloat | 6:44.97 | 0 | 0 |
| 2,050 | Zoombie_™ | 6:45.15 | 0 | 0 |
| 2,051 | strawberry sour | 6:45.64 | 0 | 0 |
| 2,052 | RagingPoet | 6:46.78 | 0 | 0 |
| 2,053 | McMo64 | 6:47.11 | 0 | 0 |
| 2,054 | Psycho1733 | 6:47.81 | 0 | 0 |
| 2,055 | Autumnal | 6:48.18 | 0 | 0 |
| 2,056 | SmokeSouls | 6:48.88 | 0 | 0 |
| 2,057 | Four | 6:50.20 | 0 | 0 |
| 2,058 | A Moldy Orange | 6:50.71 | 0 | 0 |
| 2,059 | Asajimi | 6:51.21 | 0 | 0 |
| 2,060 | Not KEEPLAYING | 6:52.40 | 0 | 0 |
| 2,061 | bepis | 6:56.96 | 0 | 0 |
| 2,062 | SevenDeck | 6:57.15 | 0 | 0 |
| 2,063 | Maxthetics | 6:59.96 | 0 | 0 |
| 2,064 | Dropkick | 7:00.97 | 0 | 0 |
| 2,065 | DARKDragonBR17 | 7:01.38 | 0 | 0 |
| 2,066 | Johnny_Matrix | 7:01.90 | 0 | 0 |
| 2,067 | nsɐʞkasu | 7:02.31 | 0 | 0 |
| 2,068 | Kyro | 7:03.52 | 0 | 0 |
| 2,069 | Snipedog | 7:09.17 | 0 | 0 |
| 2,070 | Nightpaw | 7:17.43 | 0 | 0 |
| 2,071 | Dragnar The Meme God | 7:17.53 | 0 | 0 |
| 2,072 | Clockaru | 7:18.66 | 0 | 0 |
| 2,073 | Petrus | 7:19.19 | 0 | 0 |
| 2,074 | Little Pig | 7:20.32 | 0 | 0 |
| 2,075 | LadySlash | 7:22.72 | 0 | 0 |
| 2,076 | Amelie K | 7:22.99 | 0 | 0 |
| 2,077 | --TuttiFrutti-- | 7:25.21 | 0 | 0 |
| 2,078 | rz zombie | 7:30.07 | 0 | 0 |
| 2,079 | ϏΛTZΘRΔΥ | 7:36.15 | 0 | 0 |
| 2,080 | Ahhrealpeople | 7:37.73 | 0 | 0 |
| 2,081 | adobesmurf | 7:42.53 | 0 | 0 |
| 2,082 | Annabelle | 7:47.19 | 0 | 0 |
| 2,083 | C-MOON | 7:47.48 | 0 | 0 |
| 2,084 | Tricore15 | 7:50.59 | 0 | 0 |
| 2,085 | Mannyguy | 7:55.87 | 0 | 0 |
| 2,086 | Razand | 8:12.22 | 0 | 0 |
| 2,087 | Lokamatoka | 8:17.67 | 0 | 0 |
| 2,088 | IcemanInferno | 8:18.56 | 0 | 0 |
| 2,089 | Castalex | 8:24.07 | 0 | 0 |
| 2,090 | DarthRock | 8:28.32 | 0 | 0 |
| 2,091 | Zemixy | 8:45.76 | 0 | 0 |
| 2,092 | Kilarath | 8:52.40 | 0 | 0 |
| 2,093 | KenricGaming | 8:54.86 | 0 | 0 |
| 2,094 | Too Many Urkels On Your Team | 9:19.25 | 0 | 0 |
| 2,095 | Scio | 9:19.63 | 0 | 0 |
| 2,096 | Endril | 9:24.10 | 0 | 0 |
| 2,097 | Странный Кварк | 9:24.83 | 0 | 0 |
| 2,098 | Ijsthee | 9:28.50 | 0 | 0 |
| 2,099 | Valencia | 9:36.13 | 0 | 0 |
| 2,100 | Sniper Monkey 2 (Advanced) | 9:53.67 | 0 | 0 |
| 2,101 | Sr Tlaloc | 10:02.46 | 0 | 0 |
| 2,102 | Penny_Tration | 10:12.23 | 0 | 0 |
| 2,103 | JK | 10:34.23 | 0 | 0 |
| 2,104 | mageofsolitudex | 10:48.56 | 0 | 0 |
| 2,105 | DailyRPG | 10:55.08 | 0 | 0 |
| 2,106 | Ferlos | 11:01.90 | 0 | 0 |
| 2,107 | DJAlexAurora | 11:19.56 | 0 | 0 |
| 2,108 | FearInDarkness | 11:24.31 | 0 | 0 |
| 2,109 | Orad | 11:24.85 | 0 | 0 |
| 2,110 | Night Light Dragon | 11:27.65 | 0 | 0 |
| 2,111 | seca | 11:34.32 | 0 | 0 |
| 2,112 | Alain2376 | 11:51.01 | 0 | 0 |
| 2,113 | Bellooper | 13:15.99 | 0 | 0 |
| 2,114 | Can'tKickNitrox2 | 14:07.65 | 0 | 0 |
| 2,115 | Tamotsu Kagami | 17:01.98 | 0 | 0 |
| 2,116 | ♥ Tkiebs ♥ | 20:20.92 | 0 | 0 |
HoldGrip